Time,TemperatureF,DewpointF,PressureIn,WindDirection,WindDirectionDegrees,WindSpeedMPH,WindSpeedGustMPH,Humidity,HourlyPrecipIn,Conditions,Clouds,dailyrainin,SoftwareType,DateUTC
2013-03-31 00:02:00,54.0,51.4,28.38,SSE,152,4.0,4.0,91,0.08,,---,0.08,VWS V14.01,2013-03-31 05:02:00,
2013-03-31 00:03:00,54.0,51.4,28.38,SSE,152,4.0,4.0,91,0.08,,---,0.08,VWS V14.01,2013-03-31 05:03:00,
2013-03-31 00:07:00,54.0,51.4,28.38,South,182,4.9,4.9,91,0.08,,---,0.08,VWS V14.01,2013-03-31 05:07:00,
2013-03-31 00:08:00,54.0,51.4,28.38,SSE,165,5.4,5.4,91,0.00,,---,0.08,VWS V14.01,2013-03-31 05:08:00,
2013-03-31 00:12:00,54.0,51.4,28.35,SSE,164,4.5,4.5,91,0.00,,---,0.08,VWS V14.01,2013-03-31 05:12:00,
2013-03-31 00:13:00,54.0,51.4,28.35,South,176,5.4,5.4,91,0.00,,---,0.08,VWS V14.01,2013-03-31 05:13:00,
2013-03-31 00:17:00,54.1,51.6,28.35,South,186,2.2,3.1,91,0.00,,---,0.08,VWS V14.01,2013-03-31 05:17:00,
2013-03-31 00:18:00,54.1,51.6,28.35,SW,234,2.7,2.7,91,0.00,,---,0.08,VWS V14.01,2013-03-31 05:18:00,
2013-03-31 00:22:00,54.1,51.9,28.35,South,172,3.6,3.6,92,0.00,,---,0.08,VWS V14.01,2013-03-31 05:22:00,
2013-03-31 00:23:00,54.1,51.9,28.35,South,174,0.0,0.0,92,0.00,,---,0.08,VWS V14.01,2013-03-31 05:23:00,
2013-03-31 00:27:00,54.3,52.0,28.35,South,177,0.0,0.0,92,0.04,,---,0.12,VWS V14.01,2013-03-31 05:27:00,
2013-03-31 00:28:00,54.3,52.0,28.35,South,177,0.0,0.0,92,0.04,,---,0.12,VWS V14.01,2013-03-31 05:28:00,
2013-03-31 00:32:00,54.3,52.0,28.35,SSE,166,2.7,5.4,92,0.04,,---,0.12,VWS V14.01,2013-03-31 05:32:00,
2013-03-31 00:33:00,54.3,52.0,28.35,South,179,2.7,2.7,92,0.04,,---,0.12,VWS V14.01,2013-03-31 05:33:00,
2013-03-31 00:37:00,54.3,52.0,28.35,South,179,0.0,0.0,92,0.04,,---,0.12,VWS V14.01,2013-03-31 05:37:00,
2013-03-31 00:38:00,54.3,52.0,28.35,South,179,0.0,0.0,92,0.04,,---,0.12,VWS V14.01,2013-03-31 05:38:00,
2013-03-31 00:42:00,54.3,52.0,28.35,South,180,0.0,0.0,92,0.04,,---,0.12,VWS V14.01,2013-03-31 05:42:00,
2013-03-31 00:43:00,54.3,52.0,28.35,South,180,0.0,0.0,92,0.04,,---,0.12,VWS V14.01,2013-03-31 05:43:00,
2013-03-31 00:47:00,54.1,51.9,28.35,South,179,3.1,3.1,92,0.04,,---,0.12,VWS V14.01,2013-03-31 05:47:00,
2013-03-31 00:48:00,54.1,51.9,28.35,South,179,3.1,3.1,92,0.04,,---,0.12,VWS V14.01,2013-03-31 05:48:00,
2013-03-31 00:49:00,54.1,51.9,28.35,South,186,3.1,3.1,92,0.04,,---,0.12,VWS V14.01,2013-03-31 05:49:00,
2013-03-31 00:53:00,54.1,51.9,28.35,South,186,0.0,0.0,92,0.04,,---,0.12,VWS V14.01,2013-03-31 05:53:00,
2013-03-31 00:54:00,54.1,51.9,28.35,South,186,0.0,0.0,92,0.04,,---,0.12,VWS V14.01,2013-03-31 05:54:00,
2013-03-31 00:58:00,54.1,51.9,28.35,South,182,2.2,2.2,92,0.04,,---,0.12,VWS V14.01,2013-03-31 05:58:00,
2013-03-31 00:59:00,54.1,51.9,28.35,South,181,0.0,0.0,92,0.04,,---,0.12,VWS V14.01,2013-03-31 05:59:00,
2013-03-31 01:03:00,54.1,51.9,28.35,South,183,2.2,2.2,92,0.04,,---,0.12,VWS V14.01,2013-03-31 06:03:00,
2013-03-31 01:04:00,54.1,51.9,28.35,South,183,2.2,2.2,92,0.04,,---,0.12,VWS V14.01,2013-03-31 06:04:00,
2013-03-31 01:08:00,54.1,51.9,28.35,South,184,0.0,0.0,92,0.08,,---,0.16,VWS V14.01,2013-03-31 06:08:00,
2013-03-31 01:09:00,54.1,51.9,28.35,South,184,0.0,0.0,92,0.08,,---,0.16,VWS V14.01,2013-03-31 06:09:00,
2013-03-31 01:13:00,54.1,52.2,28.35,South,183,0.0,0.0,93,0.08,,---,0.16,VWS V14.01,2013-03-31 06:13:00,
2013-03-31 01:14:00,54.1,52.2,28.35,South,183,0.0,0.0,93,0.08,,---,0.16,VWS V14.01,2013-03-31 06:14:00,
2013-03-31 01:18:00,54.1,52.2,28.35,SSE,158,3.1,3.1,93,0.08,,---,0.16,VWS V14.01,2013-03-31 06:18:00,
2013-03-31 01:19:00,54.1,52.2,28.35,SSE,158,3.1,3.1,93,0.08,,---,0.16,VWS V14.01,2013-03-31 06:19:00,
2013-03-31 01:23:00,54.1,52.2,28.35,South,178,0.0,0.0,93,0.08,,---,0.16,VWS V14.01,2013-03-31 06:23:00,
2013-03-31 01:24:00,54.1,52.2,28.35,South,178,0.0,0.0,93,0.08,,---,0.16,VWS V14.01,2013-03-31 06:24:00,
2013-03-31 01:25:00,54.1,52.2,28.35,South,179,0.0,0.0,93,0.04,,---,0.16,VWS V14.01,2013-03-31 06:25:00,
2013-03-31 01:28:00,54.1,52.2,28.35,South,179,2.7,2.7,93,0.04,,---,0.16,VWS V14.01,2013-03-31 06:28:00,
2013-03-31 01:29:00,54.1,52.2,28.35,South,179,2.7,2.7,93,0.04,,---,0.16,VWS V14.01,2013-03-31 06:29:00,
2013-03-31 01:30:00,54.1,52.2,28.35,South,171,3.1,3.1,93,0.04,,---,0.16,VWS V14.01,2013-03-31 06:30:00,
2013-03-31 01:34:00,54.1,52.2,28.35,South,175,4.0,4.0,93,0.04,,---,0.16,VWS V14.01,2013-03-31 06:34:00,
2013-03-31 01:35:00,54.1,52.2,28.35,South,183,2.7,4.0,93,0.04,,---,0.16,VWS V14.01,2013-03-31 06:35:00,
2013-03-31 01:39:00,54.1,52.2,28.35,South,185,0.0,2.7,93,0.04,,---,0.16,VWS V14.01,2013-03-31 06:39:00,
2013-03-31 01:40:00,54.1,52.2,28.35,South,185,0.0,0.0,93,0.04,,---,0.16,VWS V14.01,2013-03-31 06:40:00,
2013-03-31 01:44:00,54.1,52.2,28.32,South,185,0.0,0.0,93,0.08,,---,0.20,VWS V14.01,2013-03-31 06:44:00,
2013-03-31 01:45:00,54.1,52.2,28.32,South,185,0.0,0.0,93,0.08,,---,0.20,VWS V14.01,2013-03-31 06:45:00,
2013-03-31 01:49:00,54.1,52.2,28.32,South,178,4.0,4.0,93,0.08,,---,0.20,VWS V14.01,2013-03-31 06:49:00,
2013-03-31 01:50:00,54.1,52.2,28.32,South,178,4.0,4.0,93,0.08,,---,0.20,VWS V14.01,2013-03-31 06:50:00,
2013-03-31 01:54:00,54.1,52.2,28.32,South,187,2.2,2.2,93,0.08,,---,0.20,VWS V14.01,2013-03-31 06:54:00,
2013-03-31 01:55:00,54.1,52.2,28.32,South,187,2.2,2.2,93,0.08,,---,0.20,VWS V14.01,2013-03-31 06:55:00,
2013-03-31 01:59:00,54.1,52.2,28.32,South,185,4.0,4.0,93,0.08,,---,0.20,VWS V14.01,2013-03-31 06:59:00,
2013-03-31 02:00:00,54.1,52.2,28.32,South,185,4.0,4.0,93,0.08,,---,0.20,VWS V14.01,2013-03-31 07:00:00,
2013-03-31 02:04:00,54.1,52.2,28.32,South,176,3.6,4.0,93,0.08,,---,0.20,VWS V14.01,2013-03-31 07:04:00,
2013-03-31 02:05:00,54.1,52.2,28.32,South,176,3.6,4.0,93,0.08,,---,0.20,VWS V14.01,2013-03-31 07:05:00,
2013-03-31 02:10:00,54.3,52.3,28.35,South,174,3.1,3.1,93,0.04,,---,0.20,VWS V14.01,2013-03-31 07:10:00,
2013-03-31 02:15:00,54.3,52.3,28.35,South,181,0.0,0.0,93,0.04,,---,0.20,VWS V14.01,2013-03-31 07:15:00,
2013-03-31 02:20:00,54.3,52.3,28.35,South,180,0.0,0.0,93,0.04,,---,0.20,VWS V14.01,2013-03-31 07:20:00,
2013-03-31 02:21:00,54.3,52.3,28.35,South,180,0.0,0.0,93,0.04,,---,0.20,VWS V14.01,2013-03-31 07:21:00,
2013-03-31 02:25:00,54.3,52.3,28.35,South,178,0.0,2.2,93,0.04,,---,0.20,VWS V14.01,2013-03-31 07:25:00,
2013-03-31 02:26:00,54.3,52.3,28.32,South,178,0.0,0.0,93,0.04,,---,0.20,VWS V14.01,2013-03-31 07:26:00,
2013-03-31 02:30:00,54.3,52.3,28.32,SSE,165,4.0,4.0,93,0.04,,---,0.20,VWS V14.01,2013-03-31 07:30:00,
2013-03-31 02:31:00,54.3,52.3,28.32,SSE,166,4.0,4.0,93,0.04,,---,0.20,VWS V14.01,2013-03-31 07:31:00,
2013-03-31 02:35:00,54.3,52.3,28.32,SSE,168,5.4,5.4,93,0.08,,---,0.24,VWS V14.01,2013-03-31 07:35:00,
2013-03-31 02:36:00,54.3,52.3,28.32,South,184,4.0,5.4,93,0.08,,---,0.24,VWS V14.01,2013-03-31 07:36:00,
2013-03-31 02:40:00,54.3,52.3,28.32,SSE,163,4.0,4.0,93,0.08,,---,0.24,VWS V14.01,2013-03-31 07:40:00,
2013-03-31 02:41:00,54.3,52.3,28.32,SSE,155,0.0,0.0,93,0.08,,---,0.24,VWS V14.01,2013-03-31 07:41:00,
2013-03-31 02:45:00,54.3,52.6,28.32,SSE,165,4.9,4.9,94,0.08,,---,0.28,VWS V14.01,2013-03-31 07:45:00,
2013-03-31 02:47:00,54.3,52.6,28.32,SSE,167,4.0,4.0,94,0.08,,---,0.28,VWS V14.01,2013-03-31 07:47:00,
2013-03-31 02:50:00,54.3,52.6,28.32,SSE,167,3.6,3.6,94,0.08,,---,0.28,VWS V14.01,2013-03-31 07:50:00,
2013-03-31 02:51:00,54.3,52.6,28.32,SSE,167,3.6,3.6,94,0.08,,---,0.28,VWS V14.01,2013-03-31 07:51:00,
2013-03-31 02:53:00,54.3,52.6,28.32,SW,219,0.0,0.0,94,0.08,,---,0.28,VWS V14.01,2013-03-31 07:53:00,
2013-03-31 02:55:00,54.3,52.6,28.32,SSW,193,3.6,3.6,94,0.08,,---,0.28,VWS V14.01,2013-03-31 07:55:00,
2013-03-31 02:56:00,54.3,52.6,28.32,SSW,193,3.6,3.6,94,0.08,,---,0.28,VWS V14.01,2013-03-31 07:56:00,
2013-03-31 02:58:00,54.3,52.6,28.32,South,171,4.0,4.0,94,0.08,,---,0.28,VWS V14.01,2013-03-31 07:58:00,
2013-03-31 03:00:00,54.3,52.6,28.32,SSE,161,5.8,5.8,94,0.08,,---,0.28,VWS V14.01,2013-03-31 08:00:00,
2013-03-31 03:01:00,54.3,52.6,28.32,SSE,161,5.8,5.8,94,0.08,,---,0.28,VWS V14.01,2013-03-31 08:01:00,
2013-03-31 03:03:00,54.5,52.8,28.32,West,261,3.1,3.1,94,0.08,,---,0.28,VWS V14.01,2013-03-31 08:03:00,
2013-03-31 03:05:00,54.5,52.8,28.32,SSE,167,5.8,5.8,94,0.08,,---,0.28,VWS V14.01,2013-03-31 08:05:00,
2013-03-31 03:06:00,54.5,52.8,28.32,SSE,167,5.8,5.8,94,0.08,,---,0.28,VWS V14.01,2013-03-31 08:06:00,
2013-03-31 03:07:00,54.5,52.8,28.32,SSE,167,5.8,5.8,94,0.08,,---,0.28,VWS V14.01,2013-03-31 08:07:00,
2013-03-31 03:08:00,54.5,52.8,28.32,SSE,167,5.8,5.8,94,0.08,,---,0.28,VWS V14.01,2013-03-31 08:08:00,
2013-03-31 03:11:00,54.5,52.8,28.32,SSE,167,5.8,5.8,94,0.08,,---,0.28,VWS V14.01,2013-03-31 08:11:00,
2013-03-31 03:12:00,54.5,52.8,28.32,South,183,4.0,5.8,94,0.08,,---,0.28,VWS V14.01,2013-03-31 08:12:00,
2013-03-31 03:13:00,54.5,52.8,28.32,South,169,4.0,5.8,94,0.08,,---,0.28,VWS V14.01,2013-03-31 08:13:00,
2013-03-31 03:16:00,54.5,52.8,28.32,SSE,167,5.4,5.4,94,0.08,,---,0.28,VWS V14.01,2013-03-31 08:16:00,
2013-03-31 03:17:00,54.7,53.0,28.32,SSE,167,5.4,5.4,94,0.08,,---,0.28,VWS V14.01,2013-03-31 08:17:00,
2013-03-31 03:18:00,54.7,53.0,28.32,SSE,167,5.4,5.4,94,0.08,,---,0.28,VWS V14.01,2013-03-31 08:18:00,
2013-03-31 03:21:00,54.7,53.0,28.32,South,177,5.8,5.8,94,0.08,,---,0.28,VWS V14.01,2013-03-31 08:21:00,
2013-03-31 03:22:00,54.7,53.0,28.32,SSE,160,5.8,5.8,94,0.08,,---,0.28,VWS V14.01,2013-03-31 08:22:00,
2013-03-31 03:23:00,54.7,53.0,28.32,South,183,3.6,3.6,94,0.08,,---,0.28,VWS V14.01,2013-03-31 08:23:00,
2013-03-31 03:26:00,54.7,53.0,28.32,South,170,5.4,5.4,94,0.08,,---,0.28,VWS V14.01,2013-03-31 08:26:00,
2013-03-31 03:27:00,54.7,53.0,28.32,South,170,5.4,5.4,94,0.08,,---,0.28,VWS V14.01,2013-03-31 08:27:00,
2013-03-31 03:28:00,54.7,53.0,28.32,South,170,5.4,5.4,94,0.08,,---,0.28,VWS V14.01,2013-03-31 08:28:00,
2013-03-31 03:32:00,54.7,53.0,28.32,South,184,5.8,5.8,94,0.08,,---,0.28,VWS V14.01,2013-03-31 08:32:00,
2013-03-31 03:33:00,54.7,53.0,28.32,South,184,5.8,5.8,94,0.08,,---,0.28,VWS V14.01,2013-03-31 08:33:00,
2013-03-31 03:37:00,54.7,53.0,28.32,South,180,4.9,4.9,94,0.04,,---,0.28,VWS V14.01,2013-03-31 08:37:00,
2013-03-31 03:38:00,54.7,53.0,28.32,SSE,161,4.0,4.0,94,0.04,,---,0.28,VWS V14.01,2013-03-31 08:38:00,
2013-03-31 03:42:00,54.7,53.0,28.29,SSE,160,3.6,3.6,94,0.04,,---,0.28,VWS V14.01,2013-03-31 08:42:00,
2013-03-31 03:43:00,54.7,53.0,28.29,SSE,160,3.6,3.6,94,0.04,,---,0.28,VWS V14.01,2013-03-31 08:43:00,
2013-03-31 03:44:00,54.7,53.0,28.29,SSE,160,3.6,3.6,94,0.04,,---,0.28,VWS V14.01,2013-03-31 08:44:00,
2013-03-31 03:47:00,54.7,53.3,28.29,SSE,164,4.0,4.0,95,0.00,,---,0.28,VWS V14.01,2013-03-31 08:47:00,
2013-03-31 03:48:00,54.7,53.3,28.29,West,261,3.1,3.1,95,0.00,,---,0.28,VWS V14.01,2013-03-31 08:48:00,
2013-03-31 03:49:00,54.7,53.3,28.29,South,176,0.0,3.1,95,0.00,,---,0.28,VWS V14.01,2013-03-31 08:49:00,
2013-03-31 03:52:00,54.7,53.3,28.29,South,169,6.7,6.7,95,0.00,,---,0.28,VWS V14.01,2013-03-31 08:52:00,
2013-03-31 03:53:00,54.9,53.5,28.29,South,169,6.7,6.7,95,0.00,,---,0.28,VWS V14.01,2013-03-31 08:53:00,
2013-03-31 03:54:00,54.9,53.5,28.29,South,169,6.7,6.7,95,0.00,,---,0.28,VWS V14.01,2013-03-31 08:54:00,
2013-03-31 03:58:00,54.9,53.5,28.29,South,181,3.1,3.1,95,0.00,,---,0.28,VWS V14.01,2013-03-31 08:58:00,
2013-03-31 04:00:00,54.9,53.5,28.29,West,268,0.0,0.0,95,0.00,,---,0.28,VWS V14.01,2013-03-31 09:00:00,
2013-03-31 04:03:00,54.9,53.5,28.29,SW,218,3.1,3.1,95,0.00,,---,0.28,VWS V14.01,2013-03-31 09:03:00,
2013-03-31 04:05:00,54.9,53.5,28.29,SSW,210,0.0,0.0,95,0.00,,---,0.28,VWS V14.01,2013-03-31 09:05:00,
2013-03-31 04:08:00,54.9,53.5,28.29,SSE,165,0.0,3.6,95,0.00,,---,0.28,VWS V14.01,2013-03-31 09:08:00,
2013-03-31 04:10:00,54.9,53.5,28.29,SSE,165,0.0,0.0,95,0.00,,---,0.28,VWS V14.01,2013-03-31 09:10:00,
2013-03-31 04:13:00,54.9,53.5,28.29,South,183,0.0,4.0,95,0.00,,---,0.28,VWS V14.01,2013-03-31 09:13:00,
2013-03-31 04:14:00,54.9,53.5,28.29,South,183,0.0,0.0,95,0.00,,---,0.28,VWS V14.01,2013-03-31 09:14:00,
2013-03-31 04:15:00,54.9,53.5,28.29,South,183,0.0,0.0,95,0.00,,---,0.28,VWS V14.01,2013-03-31 09:15:00,
2013-03-31 04:18:00,54.7,53.3,28.29,SSE,163,2.7,2.7,95,0.00,,---,0.28,VWS V14.01,2013-03-31 09:18:00,
2013-03-31 04:19:00,54.7,53.3,28.29,SSE,163,2.7,2.7,95,0.00,,---,0.28,VWS V14.01,2013-03-31 09:19:00,
2013-03-31 04:20:00,54.7,53.3,28.29,SSW,198,2.7,2.7,95,0.00,,---,0.28,VWS V14.01,2013-03-31 09:20:00,
2013-03-31 04:23:00,54.7,53.3,28.29,South,172,3.6,3.6,95,0.00,,---,0.28,VWS V14.01,2013-03-31 09:23:00,
2013-03-31 04:24:00,54.7,53.3,28.29,South,172,3.6,3.6,95,0.00,,---,0.28,VWS V14.01,2013-03-31 09:24:00,
2013-03-31 04:25:00,54.7,53.3,28.29,SSE,155,2.7,2.7,95,0.00,,---,0.28,VWS V14.01,2013-03-31 09:25:00,
2013-03-31 04:28:00,54.7,53.3,28.29,South,182,3.1,3.6,95,0.00,,---,0.28,VWS V14.01,2013-03-31 09:28:00,
2013-03-31 04:29:00,54.7,53.3,28.29,South,182,3.1,3.1,95,0.00,,---,0.28,VWS V14.01,2013-03-31 09:29:00,
2013-03-31 04:30:00,54.7,53.3,28.29,South,182,3.1,3.1,95,0.00,,---,0.28,VWS V14.01,2013-03-31 09:30:00,
2013-03-31 04:33:00,54.7,53.3,28.29,South,183,2.2,2.2,95,0.00,,---,0.28,VWS V14.01,2013-03-31 09:33:00,
2013-03-31 04:34:00,54.7,53.3,28.29,South,185,3.6,3.6,95,0.00,,---,0.28,VWS V14.01,2013-03-31 09:34:00,
2013-03-31 04:35:00,54.7,53.3,28.29,South,184,2.7,3.1,95,0.00,,---,0.28,VWS V14.01,2013-03-31 09:35:00,
2013-03-31 04:39:00,54.7,53.3,28.29,South,184,3.1,3.1,95,0.00,,---,0.28,VWS V14.01,2013-03-31 09:39:00,
2013-03-31 04:40:00,54.7,53.3,28.29,South,183,2.7,2.7,95,0.00,,---,0.28,VWS V14.01,2013-03-31 09:40:00,
2013-03-31 04:44:00,54.7,53.3,28.29,SSE,167,3.6,3.6,95,0.00,,---,0.28,VWS V14.01,2013-03-31 09:44:00,
2013-03-31 04:45:00,54.7,53.3,28.29,SSE,167,0.0,3.6,95,0.00,,---,0.28,VWS V14.01,2013-03-31 09:45:00,
2013-03-31 04:49:00,54.7,53.3,28.29,SSE,168,2.7,2.7,95,0.00,,---,0.28,VWS V14.01,2013-03-31 09:49:00,
2013-03-31 04:50:00,54.7,53.3,28.29,SSE,168,3.6,3.6,95,0.00,,---,0.28,VWS V14.01,2013-03-31 09:50:00,
2013-03-31 04:54:00,54.7,53.3,28.29,SSE,168,3.6,3.6,95,0.00,,---,0.28,VWS V14.01,2013-03-31 09:54:00,
2013-03-31 04:56:00,54.7,53.3,28.29,South,178,0.0,3.6,95,0.00,,---,0.28,VWS V14.01,2013-03-31 09:56:00,
2013-03-31 04:59:00,54.7,53.3,28.29,South,178,0.0,0.0,95,0.00,,---,0.28,VWS V14.01,2013-03-31 09:59:00,
2013-03-31 05:01:00,54.7,53.3,28.29,South,178,0.0,0.0,95,0.00,,---,0.28,VWS V14.01,2013-03-31 10:01:00,
2013-03-31 05:04:00,54.7,53.3,28.29,South,178,0.0,0.0,95,0.00,,---,0.28,VWS V14.01,2013-03-31 10:04:00,
2013-03-31 05:07:00,54.7,53.3,28.29,South,178,0.0,0.0,95,0.00,,---,0.28,VWS V14.01,2013-03-31 10:07:00,
2013-03-31 05:09:00,54.7,53.3,28.29,South,178,0.0,0.0,95,0.00,,---,0.28,VWS V14.01,2013-03-31 10:09:00,
2013-03-31 05:12:00,54.7,53.3,28.29,South,178,0.0,0.0,95,0.00,,---,0.28,VWS V14.01,2013-03-31 10:12:00,
2013-03-31 05:14:00,54.7,53.3,28.29,South,178,2.7,2.7,95,0.00,,---,0.28,VWS V14.01,2013-03-31 10:14:00,
2013-03-31 05:15:00,54.7,53.3,28.29,South,178,0.0,2.7,95,0.00,,---,0.28,VWS V14.01,2013-03-31 10:15:00,
2013-03-31 05:17:00,54.7,53.3,28.29,South,178,0.0,0.0,95,0.00,,---,0.28,VWS V14.01,2013-03-31 10:17:00,
2013-03-31 05:19:00,54.7,53.3,28.29,South,178,0.0,0.0,95,0.00,,---,0.28,VWS V14.01,2013-03-31 10:19:00,
2013-03-31 05:20:00,54.7,53.3,28.29,South,178,0.0,0.0,95,0.00,,---,0.28,VWS V14.01,2013-03-31 10:20:00,
2013-03-31 05:22:00,54.7,53.3,28.29,South,178,0.0,0.0,95,0.00,,---,0.28,VWS V14.01,2013-03-31 10:22:00,
2013-03-31 05:24:00,54.7,53.3,28.29,South,178,0.0,0.0,95,0.00,,---,0.28,VWS V14.01,2013-03-31 10:24:00,
2013-03-31 05:25:00,54.7,53.3,28.29,South,178,0.0,0.0,95,0.00,,---,0.28,VWS V14.01,2013-03-31 10:25:00,
2013-03-31 05:27:00,54.7,53.3,28.29,South,178,0.0,0.0,95,0.00,,---,0.28,VWS V14.01,2013-03-31 10:27:00,
2013-03-31 05:29:00,54.7,53.3,28.32,South,178,0.0,0.0,95,0.00,,---,0.28,VWS V14.01,2013-03-31 10:29:00,
2013-03-31 05:30:00,54.7,53.3,28.32,South,178,0.0,0.0,95,0.00,,---,0.28,VWS V14.01,2013-03-31 10:30:00,
2013-03-31 05:32:00,54.7,53.3,28.32,South,178,0.0,0.0,95,0.00,,---,0.28,VWS V14.01,2013-03-31 10:32:00,
2013-03-31 05:35:00,54.7,53.3,28.32,South,178,0.0,0.0,95,0.00,,---,0.28,VWS V14.01,2013-03-31 10:35:00,
2013-03-31 05:37:00,54.7,53.3,28.32,South,178,0.0,0.0,95,0.00,,---,0.28,VWS V14.01,2013-03-31 10:37:00,
2013-03-31 05:40:00,54.7,53.3,28.32,South,178,0.0,0.0,95,0.00,,---,0.28,VWS V14.01,2013-03-31 10:40:00,
2013-03-31 05:42:00,54.7,53.3,28.32,South,178,0.0,0.0,95,0.00,,---,0.28,VWS V14.01,2013-03-31 10:42:00,
2013-03-31 05:45:00,54.7,53.3,28.32,South,178,0.0,0.0,95,0.00,,---,0.28,VWS V14.01,2013-03-31 10:45:00,
2013-03-31 05:47:00,54.7,53.3,28.32,South,178,0.0,0.0,95,0.00,,---,0.28,VWS V14.01,2013-03-31 10:47:00,
2013-03-31 05:50:00,54.7,53.3,28.32,South,178,0.0,0.0,95,0.00,,---,0.28,VWS V14.01,2013-03-31 10:50:00,
2013-03-31 05:53:00,54.7,53.3,28.32,South,178,0.0,0.0,95,0.00,,---,0.28,VWS V14.01,2013-03-31 10:53:00,
2013-03-31 05:55:00,54.9,53.5,28.32,WSW,250,0.0,0.0,95,0.00,,---,0.28,VWS V14.01,2013-03-31 10:55:00,
2013-03-31 05:58:00,54.9,53.5,28.32,WSW,250,0.0,0.0,95,0.00,,---,0.28,VWS V14.01,2013-03-31 10:58:00,
2013-03-31 06:00:00,54.9,53.5,28.32,WSW,250,0.0,0.0,95,0.00,,---,0.28,VWS V14.01,2013-03-31 11:00:00,
2013-03-31 06:03:00,54.9,53.5,28.32,WSW,250,0.0,0.0,95,0.00,,---,0.28,VWS V14.01,2013-03-31 11:03:00,
2013-03-31 06:05:00,54.9,53.5,28.32,WSW,250,0.0,0.0,95,0.00,,---,0.28,VWS V14.01,2013-03-31 11:05:00,
2013-03-31 06:06:00,54.9,53.5,28.32,South,190,2.2,2.2,95,0.00,,---,0.28,VWS V14.01,2013-03-31 11:06:00,
2013-03-31 06:08:00,54.9,53.5,28.32,South,190,0.0,0.0,95,0.00,,---,0.28,VWS V14.01,2013-03-31 11:08:00,
2013-03-31 06:10:00,54.9,53.5,28.32,South,190,0.0,0.0,95,0.00,,---,0.28,VWS V14.01,2013-03-31 11:10:00,
2013-03-31 06:11:00,54.9,53.5,28.32,South,190,0.0,0.0,95,0.00,,---,0.28,VWS V14.01,2013-03-31 11:11:00,
2013-03-31 06:13:00,54.9,53.5,28.32,South,191,0.0,0.0,95,0.00,,---,0.28,VWS V14.01,2013-03-31 11:13:00,
2013-03-31 06:15:00,54.9,53.5,28.32,South,191,0.0,0.0,95,0.00,,---,0.28,VWS V14.01,2013-03-31 11:15:00,
2013-03-31 06:16:00,54.9,53.5,28.32,South,190,0.0,0.0,95,0.00,,---,0.28,VWS V14.01,2013-03-31 11:16:00,
2013-03-31 06:18:00,54.9,53.5,28.32,West,264,2.2,2.2,95,0.00,,---,0.28,VWS V14.01,2013-03-31 11:18:00,
2013-03-31 06:20:00,55.0,53.6,28.32,West,264,2.2,2.2,95,0.00,,---,0.28,VWS V14.01,2013-03-31 11:20:00,
2013-03-31 06:21:00,55.0,53.6,28.32,West,264,2.7,2.7,95,0.00,,---,0.28,VWS V14.01,2013-03-31 11:21:00,
2013-03-31 06:23:00,55.0,53.6,28.32,West,264,0.0,2.7,95,0.00,,---,0.28,VWS V14.01,2013-03-31 11:23:00,
2013-03-31 06:25:00,55.0,53.6,28.32,West,264,0.0,0.0,95,0.00,,---,0.28,VWS V14.01,2013-03-31 11:25:00,
2013-03-31 06:26:00,55.0,53.6,28.32,West,264,0.0,0.0,95,0.00,,---,0.28,VWS V14.01,2013-03-31 11:26:00,
2013-03-31 06:28:00,55.0,53.6,28.32,West,264,0.0,0.0,95,0.00,,---,0.28,VWS V14.01,2013-03-31 11:28:00,
2013-03-31 06:30:00,55.0,53.6,28.32,West,264,0.0,0.0,95,0.00,,---,0.28,VWS V14.01,2013-03-31 11:30:00,
2013-03-31 06:31:00,55.0,53.6,28.32,West,264,0.0,0.0,95,0.00,,---,0.28,VWS V14.01,2013-03-31 11:31:00,
2013-03-31 06:33:00,55.0,53.6,28.32,South,183,0.0,2.7,95,0.00,,---,0.28,VWS V14.01,2013-03-31 11:33:00,
2013-03-31 06:35:00,55.0,53.6,28.32,South,183,0.0,0.0,95,0.00,,---,0.28,VWS V14.01,2013-03-31 11:35:00,
2013-03-31 06:36:00,55.0,53.6,28.32,South,183,0.0,0.0,95,0.00,,---,0.28,VWS V14.01,2013-03-31 11:36:00,
2013-03-31 06:38:00,55.0,53.6,28.32,West,271,0.0,0.0,95,0.00,,---,0.28,VWS V14.01,2013-03-31 11:38:00,
2013-03-31 06:40:00,55.0,53.6,28.32,West,271,0.0,0.0,95,0.00,,---,0.28,VWS V14.01,2013-03-31 11:40:00,
2013-03-31 06:42:00,55.0,53.6,28.32,West,271,0.0,0.0,95,0.00,,---,0.28,VWS V14.01,2013-03-31 11:42:00,
2013-03-31 06:44:00,55.0,53.6,28.32,South,177,0.0,4.0,95,0.00,,---,0.28,VWS V14.01,2013-03-31 11:44:00,
2013-03-31 06:46:00,55.0,53.6,28.32,South,177,0.0,0.0,95,0.00,,---,0.28,VWS V14.01,2013-03-31 11:46:00,
2013-03-31 06:47:00,55.0,53.6,28.32,South,177,0.0,0.0,95,0.00,,---,0.28,VWS V14.01,2013-03-31 11:47:00,
2013-03-31 06:49:00,55.0,53.6,28.32,SSE,157,4.0,4.0,95,0.00,,---,0.28,VWS V14.01,2013-03-31 11:49:00,
2013-03-31 06:51:00,55.0,53.6,28.32,SSE,157,0.0,0.0,95,0.00,,---,0.28,VWS V14.01,2013-03-31 11:51:00,
2013-03-31 06:52:00,55.0,53.6,28.32,SSE,157,0.0,0.0,95,0.00,,---,0.28,VWS V14.01,2013-03-31 11:52:00,
2013-03-31 06:54:00,55.0,53.6,28.32,SSE,157,0.0,0.0,95,0.00,,---,0.28,VWS V14.01,2013-03-31 11:54:00,
2013-03-31 06:57:00,55.0,53.6,28.32,SSE,157,0.0,0.0,95,0.00,,---,0.28,VWS V14.01,2013-03-31 11:57:00,
2013-03-31 06:59:00,55.0,53.6,28.32,SSE,157,0.0,0.0,95,0.00,,---,0.28,VWS V14.01,2013-03-31 11:59:00,
2013-03-31 07:02:00,55.0,53.6,28.32,SSE,157,0.0,0.0,95,0.00,,---,0.28,VWS V14.01,2013-03-31 12:02:00,
2013-03-31 07:03:00,55.0,53.6,28.32,SSE,157,0.0,0.0,95,0.00,,---,0.28,VWS V14.01,2013-03-31 12:03:00,
2013-03-31 07:04:00,55.2,53.8,28.32,SSE,157,0.0,0.0,95,0.00,,---,0.28,VWS V14.01,2013-03-31 12:04:00,
2013-03-31 07:07:00,55.2,53.8,28.32,SSE,157,0.0,0.0,95,0.00,,---,0.28,VWS V14.01,2013-03-31 12:07:00,
2013-03-31 07:08:00,55.2,53.8,28.32,SSE,157,0.0,0.0,95,0.00,,---,0.28,VWS V14.01,2013-03-31 12:08:00,
2013-03-31 07:09:00,55.2,53.8,28.32,WSW,238,2.7,2.7,95,0.00,,---,0.28,VWS V14.01,2013-03-31 12:09:00,
2013-03-31 07:12:00,55.4,54.0,28.32,WSW,238,0.0,0.0,95,0.00,,---,0.28,VWS V14.01,2013-03-31 12:12:00,
2013-03-31 07:13:00,55.4,54.0,28.32,WSW,238,0.0,0.0,95,0.00,,---,0.28,VWS V14.01,2013-03-31 12:13:00,
2013-03-31 07:14:00,55.4,54.0,28.32,WSW,238,0.0,0.0,95,0.00,,---,0.28,VWS V14.01,2013-03-31 12:14:00,
2013-03-31 07:17:00,55.6,54.2,28.32,WSW,238,2.7,2.7,95,0.00,,---,0.28,VWS V14.01,2013-03-31 12:17:00,
2013-03-31 07:18:00,55.6,54.2,28.32,WSW,238,2.7,2.7,95,0.00,,---,0.28,VWS V14.01,2013-03-31 12:18:00,
2013-03-31 07:19:00,55.6,54.2,28.32,South,169,0.0,0.0,95,0.00,,---,0.28,VWS V14.01,2013-03-31 12:19:00,
2013-03-31 07:22:00,55.6,54.2,28.32,South,169,0.0,0.0,95,0.00,,---,0.28,VWS V14.01,2013-03-31 12:22:00,
2013-03-31 07:23:00,55.6,54.2,28.32,South,169,0.0,0.0,95,0.00,,---,0.28,VWS V14.01,2013-03-31 12:23:00,
2013-03-31 07:24:00,55.6,54.2,28.32,South,169,3.6,3.6,95,0.00,,---,0.28,VWS V14.01,2013-03-31 12:24:00,
2013-03-31 07:27:00,55.8,54.3,28.32,SSE,167,2.2,2.2,95,0.00,,---,0.28,VWS V14.01,2013-03-31 12:27:00,
2013-03-31 07:28:00,55.8,54.3,28.32,SSE,167,2.2,2.2,95,0.00,,---,0.28,VWS V14.01,2013-03-31 12:28:00,
2013-03-31 07:29:00,55.8,54.3,28.32,SSE,167,2.2,2.2,95,0.00,,---,0.28,VWS V14.01,2013-03-31 12:29:00,
2013-03-31 07:33:00,55.8,54.1,28.32,South,169,3.6,3.6,94,0.00,,---,0.28,VWS V14.01,2013-03-31 12:33:00,
2013-03-31 07:34:00,55.8,54.1,28.32,South,174,4.0,4.0,94,0.00,,---,0.28,VWS V14.01,2013-03-31 12:34:00,
2013-03-31 07:35:00,55.8,54.1,28.32,South,174,3.1,3.1,94,0.00,,---,0.28,VWS V14.01,2013-03-31 12:35:00,
2013-03-31 07:38:00,55.8,54.1,28.32,South,183,0.0,3.6,94,0.00,,---,0.28,VWS V14.01,2013-03-31 12:38:00,
2013-03-31 07:39:00,55.8,54.1,28.32,South,179,2.7,2.7,94,0.00,,---,0.28,VWS V14.01,2013-03-31 12:39:00,
2013-03-31 07:40:00,55.9,54.2,28.32,SSE,166,3.6,3.6,94,0.00,,---,0.28,VWS V14.01,2013-03-31 12:40:00,
2013-03-31 07:43:00,55.9,54.2,28.32,South,174,0.0,2.7,94,0.00,,---,0.28,VWS V14.01,2013-03-31 12:43:00,
2013-03-31 07:44:00,55.9,54.2,28.32,South,174,0.0,0.0,94,0.00,,---,0.28,VWS V14.01,2013-03-31 12:44:00,
2013-03-31 07:45:00,55.9,54.2,28.32,South,174,0.0,0.0,94,0.00,,---,0.28,VWS V14.01,2013-03-31 12:45:00,
2013-03-31 07:48:00,55.9,54.2,28.32,WSW,256,0.0,0.0,94,0.00,,---,0.28,VWS V14.01,2013-03-31 12:48:00,
2013-03-31 07:49:00,55.9,54.2,28.32,WSW,256,0.0,0.0,94,0.00,,---,0.28,VWS V14.01,2013-03-31 12:49:00,
2013-03-31 07:50:00,55.9,54.2,28.32,WSW,256,0.0,0.0,94,0.00,,---,0.28,VWS V14.01,2013-03-31 12:50:00,
2013-03-31 07:53:00,56.1,54.4,28.32,SSE,151,0.0,0.0,94,0.00,,---,0.28,VWS V14.01,2013-03-31 12:53:00,
2013-03-31 07:54:00,56.1,54.4,28.32,SSE,153,0.0,0.0,94,0.00,,---,0.28,VWS V14.01,2013-03-31 12:54:00,
2013-03-31 07:55:00,56.1,54.4,28.32,SSE,153,2.7,2.7,94,0.00,,---,0.28,VWS V14.01,2013-03-31 12:55:00,
2013-03-31 07:58:00,56.3,54.6,28.32,SSE,164,2.7,2.7,94,0.00,,---,0.28,VWS V14.01,2013-03-31 12:58:00,
2013-03-31 07:59:00,56.3,54.6,28.32,SSE,166,2.7,3.6,94,0.00,,---,0.28,VWS V14.01,2013-03-31 12:59:00,
2013-03-31 08:00:00,56.3,54.6,28.32,SSE,166,2.7,2.7,94,0.00,,---,0.28,VWS V14.01,2013-03-31 13:00:00,
2013-03-31 08:03:00,56.3,54.6,28.32,SSE,166,0.0,0.0,94,0.00,,---,0.28,VWS V14.01,2013-03-31 13:03:00,
2013-03-31 08:04:00,56.3,54.6,28.32,SSE,166,0.0,0.0,94,0.00,,---,0.28,VWS V14.01,2013-03-31 13:04:00,
2013-03-31 08:05:00,56.5,54.8,28.32,SSE,166,0.0,0.0,94,0.00,,---,0.28,VWS V14.01,2013-03-31 13:05:00,
2013-03-31 08:08:00,56.5,54.8,28.32,SSE,166,0.0,0.0,94,0.00,,---,0.28,VWS V14.01,2013-03-31 13:08:00,
2013-03-31 08:09:00,56.7,55.0,28.32,SSE,166,0.0,0.0,94,0.00,,---,0.28,VWS V14.01,2013-03-31 13:09:00,
2013-03-31 08:11:00,56.7,55.2,28.32,SSE,166,0.0,0.0,95,0.00,,---,0.28,VWS V14.01,2013-03-31 13:11:00,
2013-03-31 08:13:00,56.7,55.2,28.35,SSE,166,3.6,3.6,95,0.00,,---,0.28,VWS V14.01,2013-03-31 13:13:00,
2013-03-31 08:14:00,56.7,55.2,28.35,SSE,166,3.1,3.1,95,0.00,,---,0.28,VWS V14.01,2013-03-31 13:14:00,
2013-03-31 08:15:00,56.7,55.2,28.35,SSE,166,2.2,3.1,95,0.00,,---,0.28,VWS V14.01,2013-03-31 13:15:00,
2013-03-31 08:17:00,56.8,55.4,28.35,SSE,166,0.0,2.2,95,0.00,,---,0.28,VWS V14.01,2013-03-31 13:17:00,
2013-03-31 08:19:00,56.8,55.4,28.35,SSE,166,0.0,0.0,95,0.00,,---,0.28,VWS V14.01,2013-03-31 13:19:00,
2013-03-31 08:20:00,56.8,55.1,28.35,SSE,166,0.0,0.0,94,0.00,,---,0.28,VWS V14.01,2013-03-31 13:20:00,
2013-03-31 08:22:00,56.8,55.1,28.35,South,173,3.1,3.1,94,0.00,,---,0.28,VWS V14.01,2013-03-31 13:22:00,
2013-03-31 08:24:00,56.8,55.1,28.35,South,175,3.1,3.6,94,0.00,,---,0.28,VWS V14.01,2013-03-31 13:24:00,
2013-03-31 08:25:00,56.8,55.1,28.35,South,175,3.1,3.1,94,0.00,,---,0.28,VWS V14.01,2013-03-31 13:25:00,
2013-03-31 08:27:00,57.0,55.3,28.35,South,175,3.1,3.1,94,0.00,,---,0.28,VWS V14.01,2013-03-31 13:27:00,
2013-03-31 08:29:00,57.2,55.5,28.35,South,175,2.7,2.7,94,0.00,,---,0.28,VWS V14.01,2013-03-31 13:29:00,
2013-03-31 08:30:00,57.2,55.5,28.35,South,175,3.1,3.1,94,0.00,,---,0.28,VWS V14.01,2013-03-31 13:30:00,
2013-03-31 08:32:00,57.2,55.5,28.35,South,170,3.1,3.6,94,0.00,,---,0.28,VWS V14.01,2013-03-31 13:32:00,
2013-03-31 08:34:00,57.2,55.5,28.35,SSE,153,4.9,4.9,94,0.00,,---,0.28,VWS V14.01,2013-03-31 13:34:00,
2013-03-31 08:35:00,57.2,55.5,28.35,South,181,7.2,7.2,94,0.00,,---,0.28,VWS V14.01,2013-03-31 13:35:00,
2013-03-31 08:37:00,57.2,55.5,28.35,South,181,7.2,7.2,94,0.00,,---,0.28,VWS V14.01,2013-03-31 13:37:00,
2013-03-31 08:39:00,57.2,55.5,28.35,SSE,159,3.1,3.1,94,0.00,,---,0.28,VWS V14.01,2013-03-31 13:39:00,
2013-03-31 08:40:00,57.2,55.5,28.35,SSE,159,3.1,3.1,94,0.00,,---,0.28,VWS V14.01,2013-03-31 13:40:00,
2013-03-31 08:43:00,57.2,55.5,28.35,South,179,3.6,3.6,94,0.00,,---,0.28,VWS V14.01,2013-03-31 13:43:00,
2013-03-31 08:44:00,57.2,55.5,28.35,South,174,2.7,2.7,94,0.00,,---,0.28,VWS V14.01,2013-03-31 13:44:00,
2013-03-31 08:45:00,57.2,55.5,28.35,South,174,2.7,2.7,94,0.00,,---,0.28,VWS V14.01,2013-03-31 13:45:00,
2013-03-31 08:48:00,57.2,55.5,28.35,SSE,165,2.7,3.6,94,0.00,,---,0.28,VWS V14.01,2013-03-31 13:48:00,
2013-03-31 08:49:00,57.2,55.5,28.35,SSE,165,2.7,2.7,94,0.00,,---,0.28,VWS V14.01,2013-03-31 13:49:00,
2013-03-31 08:50:00,57.2,55.5,28.35,South,177,5.8,5.8,94,0.00,,---,0.28,VWS V14.01,2013-03-31 13:50:00,
2013-03-31 08:53:00,57.2,55.5,28.35,SSE,168,3.6,3.6,94,0.00,,---,0.28,VWS V14.01,2013-03-31 13:53:00,
2013-03-31 08:54:00,57.2,55.5,28.35,South,179,3.6,3.6,94,0.00,,---,0.28,VWS V14.01,2013-03-31 13:54:00,
2013-03-31 08:55:00,57.2,55.5,28.35,South,179,3.6,3.6,94,0.00,,---,0.28,VWS V14.01,2013-03-31 13:55:00,
2013-03-31 08:58:00,57.4,55.7,28.35,South,171,3.1,4.0,94,0.00,,---,0.28,VWS V14.01,2013-03-31 13:58:00,
2013-03-31 08:59:00,57.4,55.7,28.35,SSE,162,4.0,4.0,94,0.00,,---,0.28,VWS V14.01,2013-03-31 13:59:00,
2013-03-31 09:00:00,57.4,55.4,28.35,SSE,162,4.0,4.0,93,0.00,,---,0.28,VWS V14.01,2013-03-31 14:00:00,
2013-03-31 09:03:00,57.6,55.6,28.35,South,190,3.1,3.1,93,0.00,,---,0.28,VWS V14.01,2013-03-31 14:03:00,
2013-03-31 09:04:00,57.6,55.6,28.35,South,172,3.1,3.1,93,0.00,,---,0.28,VWS V14.01,2013-03-31 14:04:00,
2013-03-31 09:05:00,57.6,55.6,28.35,South,172,3.1,3.1,93,0.00,,---,0.28,VWS V14.01,2013-03-31 14:05:00,
2013-03-31 09:08:00,57.7,55.7,28.35,South,176,4.0,4.0,93,0.00,,---,0.28,VWS V14.01,2013-03-31 14:08:00,
2013-03-31 09:09:00,57.7,55.7,28.35,South,169,3.1,3.1,93,0.00,,---,0.28,VWS V14.01,2013-03-31 14:09:00,
2013-03-31 09:10:00,57.7,55.7,28.35,South,171,3.6,3.6,93,0.00,,---,0.28,VWS V14.01,2013-03-31 14:10:00,
2013-03-31 09:11:00,57.7,55.7,28.35,South,171,3.6,3.6,93,0.00,,---,0.28,VWS V14.01,2013-03-31 14:11:00,
2013-03-31 09:14:00,57.9,55.9,28.35,South,169,3.6,3.6,93,0.00,,---,0.28,VWS V14.01,2013-03-31 14:14:00,
2013-03-31 09:16:00,57.7,55.7,28.35,SSE,158,3.6,5.4,93,0.00,,---,0.28,VWS V14.01,2013-03-31 14:16:00,
2013-03-31 09:19:00,57.7,55.4,28.35,SSE,165,4.0,4.0,92,0.00,,---,0.28,VWS V14.01,2013-03-31 14:19:00,
2013-03-31 09:20:00,57.7,55.4,28.35,South,178,4.9,4.9,92,0.00,,---,0.28,VWS V14.01,2013-03-31 14:20:00,
2013-03-31 09:21:00,57.7,55.4,28.35,SSE,153,2.2,4.9,92,0.00,,---,0.28,VWS V14.01,2013-03-31 14:21:00,
2013-03-31 09:22:00,57.7,55.4,28.35,SSE,153,2.2,4.9,92,0.00,,---,0.28,VWS V14.01,2013-03-31 14:22:00,
2013-03-31 09:24:00,57.7,55.1,28.35,SSE,153,0.0,0.0,91,0.00,,---,0.28,VWS V14.01,2013-03-31 14:24:00,
2013-03-31 09:25:00,57.7,55.1,28.35,South,181,4.0,4.0,91,0.00,,---,0.28,VWS V14.01,2013-03-31 14:25:00,
2013-03-31 09:26:00,57.7,55.1,28.35,South,181,4.0,4.0,91,0.00,,---,0.28,VWS V14.01,2013-03-31 14:26:00,
2013-03-31 09:27:00,57.9,55.3,28.35,South,181,4.5,4.5,91,0.00,,---,0.28,VWS V14.01,2013-03-31 14:27:00,
2013-03-31 09:29:00,57.9,55.0,28.35,SSE,167,4.0,4.0,90,0.00,,---,0.28,VWS V14.01,2013-03-31 14:29:00,
2013-03-31 09:30:00,57.9,55.0,28.35,South,176,3.6,3.6,90,0.00,,---,0.28,VWS V14.01,2013-03-31 14:30:00,
2013-03-31 09:31:00,57.9,55.0,28.35,SSE,149,2.2,3.6,90,0.00,,---,0.28,VWS V14.01,2013-03-31 14:31:00,
2013-03-31 09:32:00,57.9,55.0,28.35,SSE,149,2.2,2.2,90,0.00,,---,0.28,VWS V14.01,2013-03-31 14:32:00,
2013-03-31 09:34:00,57.9,54.7,28.35,South,170,3.6,3.6,89,0.00,,---,0.28,VWS V14.01,2013-03-31 14:34:00,
2013-03-31 09:35:00,57.9,54.7,28.35,South,170,3.6,3.6,89,0.00,,---,0.28,VWS V14.01,2013-03-31 14:35:00,
2013-03-31 09:36:00,57.9,54.7,28.35,SSE,163,3.1,3.1,89,0.00,,---,0.28,VWS V14.01,2013-03-31 14:36:00,
2013-03-31 09:37:00,57.9,54.7,28.35,SSE,163,3.1,3.1,89,0.00,,---,0.28,VWS V14.01,2013-03-31 14:37:00,
2013-03-31 09:39:00,57.7,54.2,28.35,SSE,153,3.6,3.6,88,0.00,,---,0.28,VWS V14.01,2013-03-31 14:39:00,
2013-03-31 09:40:00,57.7,54.2,28.35,SSE,165,3.6,3.6,88,0.00,,---,0.28,VWS V14.01,2013-03-31 14:40:00,
2013-03-31 09:41:00,57.7,54.2,28.35,SSE,164,4.0,4.0,88,0.00,,---,0.28,VWS V14.01,2013-03-31 14:41:00,
2013-03-31 09:43:00,57.7,53.9,28.32,SSE,161,5.8,5.8,87,0.00,,---,0.28,VWS V14.01,2013-03-31 14:43:00,
2013-03-31 09:44:00,57.7,53.9,28.32,SSE,162,0.0,5.4,87,0.00,,---,0.28,VWS V14.01,2013-03-31 14:44:00,
2013-03-31 09:45:00,57.7,53.9,28.32,SSE,162,0.0,0.0,87,0.00,,---,0.28,VWS V14.01,2013-03-31 14:45:00,
2013-03-31 09:46:00,57.7,53.9,28.32,SSE,166,2.7,2.7,87,0.00,,---,0.28,VWS V14.01,2013-03-31 14:46:00,
2013-03-31 09:48:00,57.9,54.1,28.32,SSE,166,2.7,2.7,87,0.00,,---,0.28,VWS V14.01,2013-03-31 14:48:00,
2013-03-31 09:50:00,57.9,54.1,28.32,SSW,195,4.0,5.4,87,0.00,,---,0.28,VWS V14.01,2013-03-31 14:50:00,
2013-03-31 09:51:00,57.7,53.6,28.32,SW,219,0.0,7.6,86,0.00,,---,0.28,VWS V14.01,2013-03-31 14:51:00,
2013-03-31 09:53:00,57.7,53.6,28.32,SW,219,0.0,0.0,86,0.00,,---,0.28,VWS V14.01,2013-03-31 14:53:00,
2013-03-31 09:55:00,57.7,53.6,28.32,WSW,257,0.0,0.0,86,0.00,,---,0.28,VWS V14.01,2013-03-31 14:55:00,
2013-03-31 09:56:00,57.7,53.3,28.32,SSE,154,0.0,0.0,85,0.00,,---,0.28,VWS V14.01,2013-03-31 14:56:00,
2013-03-31 09:57:00,57.7,53.3,28.32,SSE,154,0.0,0.0,85,0.00,,---,0.28,VWS V14.01,2013-03-31 14:57:00,
2013-03-31 09:58:00,57.9,53.4,28.32,South,185,0.0,2.7,85,0.00,,---,0.28,VWS V14.01,2013-03-31 14:58:00,
2013-03-31 10:00:00,57.9,53.4,28.32,South,185,0.0,0.0,85,0.00,,---,0.28,VWS V14.01,2013-03-31 15:00:00,
2013-03-31 10:01:00,57.9,53.4,28.32,South,185,0.0,0.0,85,0.00,,---,0.28,VWS V14.01,2013-03-31 15:01:00,
2013-03-31 10:02:00,57.9,53.4,28.32,South,185,0.0,0.0,85,0.00,,---,0.28,VWS V14.01,2013-03-31 15:02:00,
2013-03-31 10:03:00,57.9,53.4,28.32,South,178,2.2,2.7,85,0.00,,---,0.28,VWS V14.01,2013-03-31 15:03:00,
2013-03-31 10:05:00,58.1,53.6,28.32,SSE,164,3.6,3.6,85,0.00,,---,0.28,VWS V14.01,2013-03-31 15:05:00,
2013-03-31 10:06:00,58.1,53.6,28.32,South,178,2.7,3.6,85,0.00,,---,0.28,VWS V14.01,2013-03-31 15:06:00,
2013-03-31 10:07:00,58.1,53.6,28.32,South,178,2.7,2.7,85,0.00,,---,0.28,VWS V14.01,2013-03-31 15:07:00,
2013-03-31 10:08:00,58.1,53.6,28.32,South,169,5.8,5.8,85,0.00,,---,0.28,VWS V14.01,2013-03-31 15:08:00,
2013-03-31 10:11:00,58.1,53.3,28.32,South,178,0.0,5.8,84,0.00,,---,0.28,VWS V14.01,2013-03-31 15:11:00,
2013-03-31 10:12:00,58.3,53.5,28.32,South,176,3.1,3.1,84,0.00,,---,0.28,VWS V14.01,2013-03-31 15:12:00,
2013-03-31 10:13:00,58.3,53.5,28.32,South,176,3.1,3.1,84,0.00,,---,0.28,VWS V14.01,2013-03-31 15:13:00,
2013-03-31 10:17:00,58.6,53.8,28.32,South,190,5.8,5.8,84,0.00,,---,0.28,VWS V14.01,2013-03-31 15:17:00,
2013-03-31 10:18:00,59.2,54.4,28.32,South,171,5.4,5.4,84,0.00,,---,0.28,VWS V14.01,2013-03-31 15:18:00,
2013-03-31 10:22:00,60.6,55.8,28.32,South,179,4.0,4.0,84,0.00,,---,0.28,VWS V14.01,2013-03-31 15:22:00,
2013-03-31 10:23:00,60.8,55.6,28.32,South,179,4.0,4.0,83,0.00,,---,0.28,VWS V14.01,2013-03-31 15:23:00,
2013-03-31 10:27:00,61.9,56.7,28.32,SSW,196,2.7,2.7,83,0.00,,---,0.28,VWS V14.01,2013-03-31 15:27:00,
2013-03-31 10:28:00,62.1,56.5,28.32,SE,141,4.9,4.9,82,0.00,,---,0.28,VWS V14.01,2013-03-31 15:28:00,
2013-03-31 10:32:00,63.0,55.7,28.32,SSE,164,4.0,4.0,77,0.00,,---,0.28,VWS V14.01,2013-03-31 15:32:00,
2013-03-31 10:33:00,63.3,56.0,28.32,SSE,164,4.0,4.0,77,0.00,,---,0.28,VWS V14.01,2013-03-31 15:33:00,
2013-03-31 10:34:00,63.5,55.8,28.32,SSE,164,4.0,4.0,76,0.00,,---,0.28,VWS V14.01,2013-03-31 15:34:00,
2013-03-31 10:38:00,63.9,53.5,28.35,SSW,207,0.0,3.1,69,0.00,,---,0.28,VWS V14.01,2013-03-31 15:38:00,
2013-03-31 10:39:00,64.0,52.5,28.35,South,189,2.2,2.2,66,0.00,,---,0.28,VWS V14.01,2013-03-31 15:39:00,
2013-03-31 10:43:00,63.9,46.4,28.35,SW,219,4.0,4.0,53,0.00,,---,0.28,VWS V14.01,2013-03-31 15:43:00,
2013-03-31 10:44:00,63.9,45.9,28.35,SE,124,0.0,4.0,52,0.00,,---,0.28,VWS V14.01,2013-03-31 15:44:00,
2013-03-31 10:48:00,63.3,43.8,28.32,SE,146,2.7,2.7,49,0.00,,---,0.28,VWS V14.01,2013-03-31 15:48:00,
2013-03-31 10:49:00,63.1,43.7,28.32,SE,128,3.1,3.1,49,0.00,,---,0.28,VWS V14.01,2013-03-31 15:49:00,
2013-03-31 10:53:00,63.9,43.8,28.32,South,181,3.1,3.1,48,0.00,,---,0.28,VWS V14.01,2013-03-31 15:53:00,
2013-03-31 10:54:00,64.0,44.5,28.32,South,169,2.7,2.7,49,0.00,,---,0.28,VWS V14.01,2013-03-31 15:54:00,
2013-03-31 10:58:00,64.2,43.6,28.32,South,184,4.0,4.0,47,0.00,,---,0.28,VWS V14.01,2013-03-31 15:58:00,
2013-03-31 10:59:00,64.2,43.6,28.32,South,184,4.0,4.0,47,0.00,,---,0.28,VWS V14.01,2013-03-31 15:59:00,
2013-03-31 11:03:00,63.9,44.3,28.32,SE,139,0.0,0.0,49,0.00,,---,0.28,VWS V14.01,2013-03-31 16:03:00,
2013-03-31 11:04:00,63.9,43.8,28.32,SSE,155,2.2,4.0,48,0.00,,---,0.28,VWS V14.01,2013-03-31 16:04:00,
2013-03-31 11:08:00,63.5,41.8,28.32,SSE,148,2.7,2.7,45,0.00,,---,0.28,VWS V14.01,2013-03-31 16:08:00,
2013-03-31 11:09:00,63.5,41.8,28.32,South,189,5.4,5.4,45,0.00,,---,0.28,VWS V14.01,2013-03-31 16:09:00,
2013-03-31 11:13:00,63.1,42.6,28.29,SSE,160,5.4,5.4,47,0.00,,---,0.28,VWS V14.01,2013-03-31 16:13:00,
2013-03-31 11:14:00,63.1,42.0,28.29,SSE,151,3.6,5.8,46,0.00,,---,0.28,VWS V14.01,2013-03-31 16:14:00,
2013-03-31 11:18:00,63.5,43.5,28.29,SSE,151,3.6,3.6,48,0.00,,---,0.28,VWS V14.01,2013-03-31 16:18:00,
2013-03-31 11:19:00,63.5,43.5,28.29,SSE,151,3.6,3.6,48,0.00,,---,0.28,VWS V14.01,2013-03-31 16:19:00,
2013-03-31 11:20:00,63.5,43.5,28.29,SSE,151,3.6,3.6,48,0.00,,---,0.28,VWS V14.01,2013-03-31 16:20:00,
2013-03-31 11:23:00,63.7,44.2,28.29,South,182,6.3,6.3,49,0.00,,---,0.28,VWS V14.01,2013-03-31 16:23:00,
2013-03-31 11:24:00,63.7,43.1,28.29,South,182,6.3,6.3,47,0.00,,---,0.28,VWS V14.01,2013-03-31 16:24:00,
2013-03-31 11:25:00,63.7,43.1,28.29,SSE,159,4.9,6.3,47,0.00,,---,0.28,VWS V14.01,2013-03-31 16:25:00,
2013-03-31 11:28:00,63.7,42.0,28.29,SSE,152,6.3,6.3,45,0.00,,---,0.28,VWS V14.01,2013-03-31 16:28:00,
2013-03-31 11:29:00,63.9,42.1,28.29,South,170,4.5,5.4,45,0.00,,---,0.28,VWS V14.01,2013-03-31 16:29:00,
2013-03-31 11:30:00,63.9,42.1,28.29,South,170,4.5,5.4,45,0.00,,---,0.28,VWS V14.01,2013-03-31 16:30:00,
2013-03-31 11:34:00,64.0,42.3,28.29,SSW,204,3.1,3.1,45,0.00,,---,0.28,VWS V14.01,2013-03-31 16:34:00,
2013-03-31 11:35:00,64.0,42.3,28.29,South,170,5.4,5.4,45,0.00,,---,0.28,VWS V14.01,2013-03-31 16:35:00,
2013-03-31 11:39:00,64.8,43.0,28.29,SSE,163,6.3,6.3,45,0.00,,---,0.28,VWS V14.01,2013-03-31 16:39:00,
2013-03-31 11:40:00,64.6,43.4,28.29,SSE,156,6.3,6.3,46,0.00,,---,0.28,VWS V14.01,2013-03-31 16:40:00,
2013-03-31 11:41:00,64.4,43.2,28.29,South,172,5.8,6.3,46,0.00,,---,0.28,VWS V14.01,2013-03-31 16:41:00,
2013-03-31 11:44:00,64.0,42.9,28.29,South,181,3.6,3.6,46,0.00,,---,0.28,VWS V14.01,2013-03-31 16:44:00,
2013-03-31 11:45:00,63.9,42.1,28.29,South,181,3.6,3.6,45,0.00,,---,0.28,VWS V14.01,2013-03-31 16:45:00,
2013-03-31 11:46:00,63.7,42.0,28.29,South,191,5.8,5.8,45,0.00,,---,0.28,VWS V14.01,2013-03-31 16:46:00,
2013-03-31 11:49:00,63.0,41.9,28.29,SE,145,7.6,7.6,46,0.00,,---,0.28,VWS V14.01,2013-03-31 16:49:00,
2013-03-31 11:50:00,63.0,41.9,28.29,SE,145,7.6,7.6,46,0.00,,---,0.28,VWS V14.01,2013-03-31 16:50:00,
2013-03-31 11:52:00,62.6,42.1,28.29,South,177,4.0,5.8,47,0.00,,---,0.28,VWS V14.01,2013-03-31 16:52:00,
2013-03-31 11:54:00,62.2,42.3,28.29,SSE,166,3.1,3.1,48,0.00,,---,0.28,VWS V14.01,2013-03-31 16:54:00,
2013-03-31 11:55:00,62.2,42.3,28.29,South,172,8.1,8.1,48,0.00,,---,0.28,VWS V14.01,2013-03-31 16:55:00,
2013-03-31 11:57:00,61.9,42.5,28.29,South,177,6.3,8.7,49,0.00,,---,0.28,VWS V14.01,2013-03-31 16:57:00,
2013-03-31 11:59:00,61.7,42.9,28.29,SSE,160,3.6,3.6,50,0.00,,---,0.28,VWS V14.01,2013-03-31 16:59:00,
2013-03-31 12:00:00,61.7,42.9,28.29,South,190,5.4,5.4,50,0.00,,---,0.28,VWS V14.01,2013-03-31 17:00:00,
2013-03-31 12:02:00,61.3,43.1,28.29,South,170,5.8,5.8,51,0.00,,---,0.28,VWS V14.01,2013-03-31 17:02:00,
2013-03-31 12:04:00,61.3,43.1,28.29,SW,222,5.8,5.8,51,0.00,,---,0.28,VWS V14.01,2013-03-31 17:04:00,
2013-03-31 12:05:00,61.2,43.4,28.29,South,169,5.4,5.4,52,0.00,,---,0.28,VWS V14.01,2013-03-31 17:05:00,
2013-03-31 12:07:00,61.0,43.8,28.29,SSE,165,3.1,3.1,53,0.00,,---,0.28,VWS V14.01,2013-03-31 17:07:00,
2013-03-31 12:10:00,61.0,44.2,28.29,SE,141,4.0,4.0,54,0.00,,---,0.28,VWS V14.01,2013-03-31 17:10:00,
2013-03-31 12:11:00,61.0,44.7,28.29,SSW,204,3.6,4.0,55,0.00,,---,0.28,VWS V14.01,2013-03-31 17:11:00,
2013-03-31 12:12:00,61.0,45.2,28.29,SSE,152,5.4,5.4,56,0.00,,---,0.28,VWS V14.01,2013-03-31 17:12:00,
2013-03-31 12:15:00,61.0,44.7,28.29,South,170,5.8,10.5,55,0.00,,---,0.28,VWS V14.01,2013-03-31 17:15:00,
2013-03-31 12:16:00,61.0,44.7,28.29,South,171,3.6,8.1,55,0.00,,---,0.28,VWS V14.01,2013-03-31 17:16:00,
2013-03-31 12:17:00,61.0,44.7,28.29,South,171,3.6,3.6,55,0.00,,---,0.28,VWS V14.01,2013-03-31 17:17:00,
2013-03-31 12:20:00,60.8,44.5,28.29,SSE,167,4.0,5.4,55,0.00,,---,0.28,VWS V14.01,2013-03-31 17:20:00,
2013-03-31 12:22:00,60.4,44.7,28.32,South,180,6.3,10.1,56,0.00,,---,0.28,VWS V14.01,2013-03-31 17:22:00,
2013-03-31 12:25:00,60.1,44.8,28.32,SSE,161,5.8,8.3,57,0.00,,---,0.28,VWS V14.01,2013-03-31 17:25:00,
2013-03-31 12:26:00,60.1,44.8,28.32,SSE,161,5.8,8.3,57,0.00,,---,0.28,VWS V14.01,2013-03-31 17:26:00,
2013-03-31 12:27:00,59.9,45.5,28.32,South,174,7.6,7.6,59,0.00,,---,0.28,VWS V14.01,2013-03-31 17:27:00,
2013-03-31 12:30:00,59.7,46.7,28.32,SE,136,4.0,4.0,62,0.00,,---,0.28,VWS V14.01,2013-03-31 17:30:00,
2013-03-31 12:32:00,59.5,47.0,28.32,South,172,5.8,5.8,63,0.00,,---,0.28,VWS V14.01,2013-03-31 17:32:00,
2013-03-31 12:36:00,59.4,48.4,28.32,South,175,5.4,5.8,67,0.00,,---,0.28,VWS V14.01,2013-03-31 17:36:00,
2013-03-31 12:37:00,59.4,48.8,28.32,South,181,6.3,6.3,68,0.00,,---,0.28,VWS V14.01,2013-03-31 17:37:00,
2013-03-31 12:38:00,59.4,48.8,28.32,SW,218,8.3,8.3,68,0.00,,---,0.28,VWS V14.01,2013-03-31 17:38:00,
2013-03-31 12:41:00,59.2,49.4,28.32,South,175,7.2,8.1,70,0.00,,---,0.28,VWS V14.01,2013-03-31 17:41:00,
2013-03-31 12:42:00,59.2,49.4,28.32,South,180,5.4,7.2,70,0.00,,---,0.28,VWS V14.01,2013-03-31 17:42:00,
2013-03-31 12:43:00,59.2,49.4,28.32,South,171,5.4,5.4,70,0.00,,---,0.28,VWS V14.01,2013-03-31 17:43:00,
2013-03-31 12:46:00,59.0,50.0,28.32,South,178,4.0,4.0,72,0.00,,---,0.28,VWS V14.01,2013-03-31 17:46:00,
2013-03-31 12:47:00,59.0,50.0,28.32,South,184,5.4,5.8,72,0.00,,---,0.28,VWS V14.01,2013-03-31 17:47:00,
2013-03-31 12:48:00,59.0,50.4,28.32,SSE,164,4.9,4.9,73,0.00,,---,0.28,VWS V14.01,2013-03-31 17:48:00,
2013-03-31 12:51:00,59.0,50.4,28.32,South,186,0.0,3.6,73,0.00,,---,0.28,VWS V14.01,2013-03-31 17:51:00,
2013-03-31 12:52:00,59.0,50.4,28.32,South,183,3.1,3.1,73,0.00,,---,0.28,VWS V14.01,2013-03-31 17:52:00,
2013-03-31 12:53:00,59.0,50.4,28.32,South,181,4.0,5.8,73,0.00,,---,0.28,VWS V14.01,2013-03-31 17:53:00,
2013-03-31 12:57:00,59.0,50.7,28.32,South,175,4.0,4.0,74,0.00,,---,0.28,VWS V14.01,2013-03-31 17:57:00,
2013-03-31 12:58:00,59.0,51.1,28.32,SSE,149,6.3,6.3,75,0.00,,---,0.28,VWS V14.01,2013-03-31 17:58:00,
2013-03-31 13:02:00,59.0,51.5,28.32,SSE,160,3.6,3.6,76,0.00,,---,0.28,VWS V14.01,2013-03-31 18:02:00,
2013-03-31 13:03:00,59.0,51.5,28.32,SSE,166,2.2,4.0,76,0.00,,---,0.28,VWS V14.01,2013-03-31 18:03:00,
2013-03-31 13:08:00,59.2,52.0,28.32,SSE,167,4.0,4.0,77,0.00,,---,0.28,VWS V14.01,2013-03-31 18:08:00,
2013-03-31 13:09:00,59.2,52.0,28.32,SSE,165,3.1,3.6,77,0.00,,---,0.28,VWS V14.01,2013-03-31 18:09:00,
2013-03-31 13:13:00,59.4,52.5,28.29,South,177,4.0,5.8,78,0.00,,---,0.28,VWS V14.01,2013-03-31 18:13:00,
2013-03-31 13:14:00,59.4,52.5,28.29,South,177,4.0,4.0,78,0.00,,---,0.28,VWS V14.01,2013-03-31 18:14:00,
2013-03-31 13:18:00,59.2,52.3,28.29,SSE,166,5.8,5.8,78,0.00,,---,0.28,VWS V14.01,2013-03-31 18:18:00,
2013-03-31 13:19:00,59.2,52.0,28.29,SSE,166,5.8,5.8,77,0.00,,---,0.28,VWS V14.01,2013-03-31 18:19:00,
2013-03-31 13:23:00,59.0,51.8,28.29,SE,144,4.9,4.9,77,0.00,,---,0.28,VWS V14.01,2013-03-31 18:23:00,
2013-03-31 13:24:00,59.0,51.8,28.29,SSE,152,2.7,2.7,77,0.00,,---,0.28,VWS V14.01,2013-03-31 18:24:00,
2013-03-31 13:28:00,59.0,52.2,28.29,South,185,2.7,2.7,78,0.00,,---,0.28,VWS V14.01,2013-03-31 18:28:00,
2013-03-31 13:29:00,59.0,52.2,28.29,South,176,5.4,5.4,78,0.00,,---,0.28,VWS V14.01,2013-03-31 18:29:00,
2013-03-31 13:33:00,58.8,52.0,28.29,SSE,149,3.6,3.6,78,0.00,,---,0.28,VWS V14.01,2013-03-31 18:33:00,
2013-03-31 13:34:00,59.0,52.2,28.29,SSE,156,2.7,2.7,78,0.00,,---,0.28,VWS V14.01,2013-03-31 18:34:00,
2013-03-31 13:38:00,59.0,52.5,28.29,SSE,151,6.3,6.3,79,0.00,,---,0.28,VWS V14.01,2013-03-31 18:38:00,
2013-03-31 13:39:00,59.2,52.7,28.29,South,186,5.8,5.8,79,0.00,,---,0.28,VWS V14.01,2013-03-31 18:39:00,
2013-03-31 13:40:00,59.2,52.7,28.29,SSE,162,3.6,5.8,79,0.00,,---,0.28,VWS V14.01,2013-03-31 18:40:00,
2013-03-31 13:43:00,59.2,53.0,28.29,SSE,156,4.0,5.4,80,0.00,,---,0.28,VWS V14.01,2013-03-31 18:43:00,
2013-03-31 13:44:00,59.2,53.0,28.29,South,178,4.9,4.9,80,0.00,,---,0.28,VWS V14.01,2013-03-31 18:44:00,
2013-03-31 13:45:00,59.4,53.5,28.29,South,191,5.4,5.4,81,0.00,,---,0.28,VWS V14.01,2013-03-31 18:45:00,
2013-03-31 13:48:00,59.4,53.5,28.29,South,179,4.0,4.0,81,0.00,,---,0.28,VWS V14.01,2013-03-31 18:48:00,
2013-03-31 13:49:00,59.4,53.5,28.29,South,179,4.0,4.0,81,0.00,,---,0.28,VWS V14.01,2013-03-31 18:49:00,
2013-03-31 13:50:00,59.4,53.5,28.29,SE,144,3.6,4.0,81,0.00,,---,0.28,VWS V14.01,2013-03-31 18:50:00,
2013-03-31 13:53:00,59.7,54.2,28.29,SSE,157,3.1,3.1,82,0.00,,---,0.28,VWS V14.01,2013-03-31 18:53:00,
2013-03-31 13:54:00,59.7,54.2,28.29,SSW,192,2.7,3.1,82,0.00,,---,0.28,VWS V14.01,2013-03-31 18:54:00,
2013-03-31 13:55:00,59.7,54.2,28.29,SSW,192,2.7,3.1,82,0.00,,---,0.28,VWS V14.01,2013-03-31 18:55:00,
2013-03-31 13:59:00,59.7,54.2,28.29,SSE,159,3.1,3.1,82,0.00,,---,0.28,VWS V14.01,2013-03-31 18:59:00,
2013-03-31 14:00:00,59.7,54.2,28.29,SSE,168,2.7,4.0,82,0.00,,---,0.28,VWS V14.01,2013-03-31 19:00:00,
2013-03-31 14:04:00,59.9,54.4,28.29,South,177,5.4,6.3,82,0.00,,---,0.28,VWS V14.01,2013-03-31 19:04:00,
2013-03-31 14:05:00,59.9,54.4,28.29,SSE,163,4.9,5.4,82,0.00,,---,0.28,VWS V14.01,2013-03-31 19:05:00,
2013-03-31 14:09:00,60.4,54.9,28.29,South,184,5.8,5.8,82,0.00,,---,0.28,VWS V14.01,2013-03-31 19:09:00,
2013-03-31 14:10:00,60.6,55.1,28.29,South,179,3.1,5.8,82,0.00,,---,0.28,VWS V14.01,2013-03-31 19:10:00,
2013-03-31 14:14:00,61.3,56.1,28.29,SE,143,3.1,3.1,83,0.00,,---,0.28,VWS V14.01,2013-03-31 19:14:00,
2013-03-31 14:15:00,61.3,56.1,28.29,SSW,204,8.1,8.1,83,0.00,,---,0.28,VWS V14.01,2013-03-31 19:15:00,
2013-03-31 14:19:00,61.7,55.8,28.29,SSE,153,2.2,2.2,81,0.00,,---,0.28,VWS V14.01,2013-03-31 19:19:00,
2013-03-31 14:20:00,62.1,56.2,28.29,SE,127,5.4,5.4,81,0.00,,---,0.28,VWS V14.01,2013-03-31 19:20:00,
2013-03-31 14:24:00,62.8,56.5,28.26,South,183,4.0,4.0,80,0.00,,---,0.28,VWS V14.01,2013-03-31 19:24:00,
2013-03-31 14:25:00,63.0,56.7,28.26,ESE,123,5.4,5.4,80,0.00,,---,0.28,VWS V14.01,2013-03-31 19:25:00,
2013-03-31 14:29:00,62.6,50.7,28.26,NW,306,2.7,2.7,65,0.00,,---,0.28,VWS V14.01,2013-03-31 19:29:00,
2013-03-31 14:30:00,62.6,50.7,28.26,SE,125,3.1,4.0,65,0.00,,---,0.28,VWS V14.01,2013-03-31 19:30:00,
2013-03-31 14:34:00,62.8,48.7,28.26,SSW,196,4.9,4.9,60,0.00,,---,0.28,VWS V14.01,2013-03-31 19:34:00,
2013-03-31 14:35:00,62.8,49.2,28.26,WSW,252,3.1,3.1,61,0.00,,---,0.28,VWS V14.01,2013-03-31 19:35:00,
2013-03-31 14:39:00,62.6,47.2,28.26,South,170,3.1,3.1,57,0.00,,---,0.28,VWS V14.01,2013-03-31 19:39:00,
2013-03-31 14:40:00,62.6,47.6,28.29,South,187,2.7,2.7,58,0.00,,---,0.28,VWS V14.01,2013-03-31 19:40:00,
2013-03-31 14:45:00,62.8,48.3,28.29,SE,129,2.7,2.7,59,0.00,,---,0.28,VWS V14.01,2013-03-31 19:45:00,
2013-03-31 14:46:00,63.0,48.4,28.29,SW,224,3.6,3.6,59,0.00,,---,0.28,VWS V14.01,2013-03-31 19:46:00,
2013-03-31 14:50:00,63.1,48.6,28.29,SSE,162,2.2,3.1,59,0.00,,---,0.28,VWS V14.01,2013-03-31 19:50:00,
2013-03-31 14:51:00,63.1,49.0,28.29,South,174,0.0,3.6,60,0.00,,---,0.28,VWS V14.01,2013-03-31 19:51:00,
2013-03-31 14:55:00,63.5,48.5,28.26,SSW,213,2.7,2.7,58,0.00,,---,0.28,VWS V14.01,2013-03-31 19:55:00,
2013-03-31 14:56:00,63.5,48.5,28.26,WNW,288,0.0,0.0,58,0.00,,---,0.28,VWS V14.01,2013-03-31 19:56:00,
2013-03-31 15:00:00,63.9,49.3,28.26,WSW,249,0.0,0.0,59,0.00,,---,0.28,VWS V14.01,2013-03-31 20:00:00,
2013-03-31 15:01:00,63.9,49.3,28.26,South,188,0.0,0.0,59,0.00,,---,0.28,VWS V14.01,2013-03-31 20:01:00,
2013-03-31 15:02:00,63.9,48.8,28.26,NNE,12,0.0,0.0,58,0.00,,---,0.28,VWS V14.01,2013-03-31 20:02:00,
2013-03-31 15:05:00,64.0,49.0,28.26,South,187,3.1,3.1,58,0.00,,---,0.28,VWS V14.01,2013-03-31 20:05:00,
2013-03-31 15:06:00,64.0,49.0,28.26,SSW,196,0.0,3.1,58,0.00,,---,0.28,VWS V14.01,2013-03-31 20:06:00,
2013-03-31 15:07:00,64.2,49.2,28.26,WSW,247,3.6,3.6,58,0.00,,---,0.28,VWS V14.01,2013-03-31 20:07:00,
2013-03-31 15:10:00,64.2,47.7,28.26,WSW,255,0.0,0.0,55,0.00,,---,0.28,VWS V14.01,2013-03-31 20:10:00,
2013-03-31 15:11:00,64.2,48.2,28.26,WSW,255,0.0,0.0,56,0.00,,---,0.28,VWS V14.01,2013-03-31 20:11:00,
2013-03-31 15:12:00,64.2,48.2,28.26,WNW,298,2.2,2.2,56,0.00,,---,0.28,VWS V14.01,2013-03-31 20:12:00,
2013-03-31 15:15:00,64.2,46.8,28.26,West,277,2.2,2.2,53,0.00,,---,0.28,VWS V14.01,2013-03-31 20:15:00,
2013-03-31 15:16:00,64.0,46.1,28.26,NW,313,3.1,3.1,52,0.00,,---,0.28,VWS V14.01,2013-03-31 20:16:00,
2013-03-31 15:17:00,64.0,45.6,28.26,NW,313,3.1,3.1,51,0.00,,---,0.28,VWS V14.01,2013-03-31 20:17:00,
2013-03-31 15:20:00,63.9,44.9,28.26,NW,313,0.0,2.7,50,0.00,,---,0.28,VWS V14.01,2013-03-31 20:20:00,
2013-03-31 15:21:00,63.9,44.9,28.26,NW,313,0.0,0.0,50,0.00,,---,0.28,VWS V14.01,2013-03-31 20:21:00,
2013-03-31 15:23:00,63.7,44.7,28.26,NW,310,0.0,0.0,50,0.00,,---,0.28,VWS V14.01,2013-03-31 20:23:00,
2013-03-31 15:25:00,63.5,45.1,28.26,NW,310,0.0,0.0,51,0.00,,---,0.28,VWS V14.01,2013-03-31 20:25:00,
2013-03-31 15:26:00,63.5,45.1,28.26,NW,310,0.0,0.0,51,0.00,,---,0.28,VWS V14.01,2013-03-31 20:26:00,
2013-03-31 15:27:00,63.3,45.4,28.26,NW,310,0.0,0.0,52,0.00,,---,0.28,VWS V14.01,2013-03-31 20:27:00,
2013-03-31 15:28:00,63.3,45.4,28.26,NW,310,0.0,0.0,52,0.00,,---,0.28,VWS V14.01,2013-03-31 20:28:00,
2013-03-31 15:31:00,63.1,45.8,28.26,NW,310,0.0,0.0,53,0.00,,---,0.28,VWS V14.01,2013-03-31 20:31:00,
2013-03-31 15:32:00,63.1,46.7,28.26,NW,310,0.0,0.0,55,0.00,,---,0.28,VWS V14.01,2013-03-31 20:32:00,
2013-03-31 15:33:00,63.1,46.7,28.26,NW,310,0.0,0.0,55,0.00,,---,0.28,VWS V14.01,2013-03-31 20:33:00,
2013-03-31 15:36:00,63.0,47.0,28.26,NW,310,0.0,0.0,56,0.00,,---,0.28,VWS V14.01,2013-03-31 20:36:00,
2013-03-31 15:37:00,62.8,46.9,28.26,NW,310,0.0,0.0,56,0.00,,---,0.28,VWS V14.01,2013-03-31 20:37:00,
2013-03-31 15:38:00,62.8,47.3,28.26,NW,310,0.0,0.0,57,0.00,,---,0.28,VWS V14.01,2013-03-31 20:38:00,
2013-03-31 15:41:00,62.6,47.2,28.26,NW,310,0.0,0.0,57,0.00,,---,0.28,VWS V14.01,2013-03-31 20:41:00,
2013-03-31 15:42:00,62.6,47.6,28.26,NW,310,0.0,0.0,58,0.00,,---,0.28,VWS V14.01,2013-03-31 20:42:00,
2013-03-31 15:43:00,62.6,48.1,28.26,NW,310,0.0,0.0,59,0.00,,---,0.28,VWS V14.01,2013-03-31 20:43:00,
2013-03-31 15:46:00,62.2,47.8,28.26,NW,310,0.0,0.0,59,0.00,,---,0.28,VWS V14.01,2013-03-31 20:46:00,
2013-03-31 15:47:00,62.2,47.8,28.26,NW,305,0.0,0.0,59,0.00,,---,0.28,VWS V14.01,2013-03-31 20:47:00,
2013-03-31 15:48:00,62.2,47.8,28.26,NW,305,0.0,0.0,59,0.04,,---,0.31,VWS V14.01,2013-03-31 20:48:00,
2013-03-31 15:51:00,61.9,47.9,28.26,South,177,0.0,0.0,60,0.04,,---,0.31,VWS V14.01,2013-03-31 20:51:00,
2013-03-31 15:52:00,61.9,47.9,28.26,South,177,2.7,2.7,60,0.04,,---,0.31,VWS V14.01,2013-03-31 20:52:00,
2013-03-31 15:53:00,61.7,48.1,28.26,South,177,3.1,3.1,61,0.04,,---,0.31,VWS V14.01,2013-03-31 20:53:00,
2013-03-31 15:54:00,61.7,48.1,28.26,South,177,2.2,3.1,61,0.04,,---,0.31,VWS V14.01,2013-03-31 20:54:00,
2013-03-31 15:56:00,61.3,48.7,28.29,South,179,2.7,2.7,63,0.04,,---,0.31,VWS V14.01,2013-03-31 20:56:00,
2013-03-31 15:57:00,61.3,49.1,28.29,South,179,0.0,0.0,64,0.04,,---,0.31,VWS V14.01,2013-03-31 20:57:00,
2013-03-31 15:58:00,61.3,49.1,28.29,South,179,0.0,0.0,64,0.04,,---,0.31,VWS V14.01,2013-03-31 20:58:00,
2013-03-31 15:59:00,61.3,49.1,28.29,South,179,0.0,0.0,64,0.04,,---,0.31,VWS V14.01,2013-03-31 20:59:00,
2013-03-31 16:01:00,61.2,49.3,28.29,South,180,0.0,2.2,65,0.04,,---,0.31,VWS V14.01,2013-03-31 21:01:00,
2013-03-31 16:02:00,61.2,49.3,28.29,South,180,0.0,0.0,65,0.04,,---,0.31,VWS V14.01,2013-03-31 21:02:00,
2013-03-31 16:03:00,61.2,49.7,28.29,South,180,0.0,0.0,66,0.04,,---,0.31,VWS V14.01,2013-03-31 21:03:00,
2013-03-31 16:04:00,61.2,49.7,28.29,South,180,0.0,0.0,66,0.04,,---,0.31,VWS V14.01,2013-03-31 21:04:00,
2013-03-31 16:06:00,61.0,50.0,28.29,South,180,0.0,0.0,67,0.04,,---,0.31,VWS V14.01,2013-03-31 21:06:00,
2013-03-31 16:07:00,61.0,50.0,28.29,South,180,0.0,0.0,67,0.04,,---,0.31,VWS V14.01,2013-03-31 21:07:00,
2013-03-31 16:08:00,61.0,50.4,28.29,South,180,0.0,0.0,68,0.04,,---,0.31,VWS V14.01,2013-03-31 21:08:00,
2013-03-31 16:09:00,61.0,50.4,28.29,South,180,0.0,0.0,68,0.04,,---,0.31,VWS V14.01,2013-03-31 21:09:00,
2013-03-31 16:12:00,61.0,50.4,28.29,South,180,0.0,0.0,68,0.04,,---,0.31,VWS V14.01,2013-03-31 21:12:00,
2013-03-31 16:14:00,61.0,50.4,28.29,South,180,0.0,0.0,68,0.04,,---,0.31,VWS V14.01,2013-03-31 21:14:00,
2013-03-31 16:17:00,61.0,50.8,28.29,South,180,0.0,0.0,69,0.08,,---,0.35,VWS V14.01,2013-03-31 21:17:00,
2013-03-31 16:18:00,61.0,50.8,28.29,South,180,0.0,0.0,69,0.08,,---,0.35,VWS V14.01,2013-03-31 21:18:00,
2013-03-31 16:19:00,61.0,51.1,28.29,South,180,0.0,0.0,70,0.08,,---,0.35,VWS V14.01,2013-03-31 21:19:00,
2013-03-31 16:22:00,61.0,51.1,28.29,South,180,0.0,0.0,70,0.08,,---,0.35,VWS V14.01,2013-03-31 21:22:00,
2013-03-31 16:23:00,61.0,51.5,28.29,South,180,0.0,0.0,71,0.08,,---,0.35,VWS V14.01,2013-03-31 21:23:00,
2013-03-31 16:24:00,61.0,51.5,28.29,South,180,0.0,0.0,71,0.08,,---,0.35,VWS V14.01,2013-03-31 21:24:00,
2013-03-31 16:25:00,61.0,51.5,28.29,South,180,0.0,0.0,71,0.08,,---,0.35,VWS V14.01,2013-03-31 21:25:00,
2013-03-31 16:27:00,61.2,52.1,28.26,South,180,0.0,0.0,72,0.08,,---,0.35,VWS V14.01,2013-03-31 21:27:00,
2013-03-31 16:28:00,61.3,52.2,28.26,South,180,0.0,0.0,72,0.08,,---,0.35,VWS V14.01,2013-03-31 21:28:00,
2013-03-31 16:29:00,61.3,52.2,28.26,South,180,0.0,0.0,72,0.08,,---,0.35,VWS V14.01,2013-03-31 21:29:00,
2013-03-31 16:30:00,61.3,52.2,28.26,South,180,0.0,0.0,72,0.08,,---,0.35,VWS V14.01,2013-03-31 21:30:00,
2013-03-31 16:34:00,61.5,52.8,28.26,South,180,0.0,0.0,73,0.08,,---,0.35,VWS V14.01,2013-03-31 21:34:00,
2013-03-31 16:35:00,61.7,53.0,28.26,South,180,0.0,0.0,73,0.08,,---,0.35,VWS V14.01,2013-03-31 21:35:00,
2013-03-31 16:39:00,61.7,53.0,28.26,South,180,0.0,0.0,73,0.08,,---,0.35,VWS V14.01,2013-03-31 21:39:00,
2013-03-31 16:40:00,61.7,53.0,28.26,South,180,0.0,0.0,73,0.08,,---,0.35,VWS V14.01,2013-03-31 21:40:00,
2013-03-31 16:44:00,61.7,53.3,28.26,South,180,0.0,0.0,74,0.08,,---,0.35,VWS V14.01,2013-03-31 21:44:00,
2013-03-31 16:45:00,61.7,53.3,28.26,South,180,0.0,0.0,74,0.08,,---,0.35,VWS V14.01,2013-03-31 21:45:00,
2013-03-31 16:49:00,61.9,53.5,28.26,South,180,0.0,0.0,74,0.08,,---,0.35,VWS V14.01,2013-03-31 21:49:00,
2013-03-31 16:50:00,61.9,53.9,28.26,South,180,0.0,0.0,75,0.04,,---,0.35,VWS V14.01,2013-03-31 21:50:00,
2013-03-31 16:54:00,61.9,53.9,28.26,South,180,0.0,0.0,75,0.04,,---,0.35,VWS V14.01,2013-03-31 21:54:00,
2013-03-31 16:55:00,61.9,53.9,28.26,South,180,0.0,0.0,75,0.04,,---,0.35,VWS V14.01,2013-03-31 21:55:00,
2013-03-31 16:59:00,61.9,54.2,28.26,South,180,0.0,0.0,76,0.04,,---,0.35,VWS V14.01,2013-03-31 21:59:00,
2013-03-31 17:00:00,61.9,54.2,28.26,South,180,0.0,0.0,76,0.04,,---,0.35,VWS V14.01,2013-03-31 22:00:00,
2013-03-31 17:04:00,61.7,54.1,28.26,South,179,0.0,0.0,76,0.04,,---,0.35,VWS V14.01,2013-03-31 22:04:00,
2013-03-31 17:05:00,61.7,54.1,28.26,South,179,0.0,0.0,76,0.04,,---,0.35,VWS V14.01,2013-03-31 22:05:00,
2013-03-31 17:09:00,61.5,53.9,28.26,South,179,0.0,0.0,76,0.04,,---,0.35,VWS V14.01,2013-03-31 22:09:00,
2013-03-31 17:10:00,61.5,53.9,28.26,South,179,0.0,0.0,76,0.04,,---,0.35,VWS V14.01,2013-03-31 22:10:00,
2013-03-31 17:14:00,61.5,53.9,28.26,South,179,0.0,0.0,76,0.04,,---,0.35,VWS V14.01,2013-03-31 22:14:00,
2013-03-31 17:15:00,61.5,53.9,28.26,South,179,0.0,0.0,76,0.04,,---,0.35,VWS V14.01,2013-03-31 22:15:00,
2013-03-31 17:20:00,61.3,53.7,28.26,South,179,0.0,0.0,76,0.00,,---,0.35,VWS V14.01,2013-03-31 22:20:00,
2013-03-31 17:25:00,61.2,53.5,28.26,South,179,2.2,2.2,76,0.00,,---,0.35,VWS V14.01,2013-03-31 22:25:00,
2013-03-31 17:26:00,61.2,53.5,28.26,South,179,0.0,2.2,76,0.00,,---,0.35,VWS V14.01,2013-03-31 22:26:00,
2013-03-31 17:30:00,61.0,53.4,28.26,South,179,0.0,0.0,76,0.00,,---,0.35,VWS V14.01,2013-03-31 22:30:00,
2013-03-31 17:32:00,61.0,53.4,28.26,NW,326,0.0,0.0,76,0.00,,---,0.35,VWS V14.01,2013-03-31 22:32:00,
2013-03-31 17:35:00,60.8,53.5,28.26,NW,326,0.0,0.0,77,0.00,,---,0.35,VWS V14.01,2013-03-31 22:35:00,
2013-03-31 17:38:00,60.8,53.5,28.26,West,273,2.7,2.7,77,0.00,,---,0.35,VWS V14.01,2013-03-31 22:38:00,
2013-03-31 17:40:00,60.8,53.5,28.26,West,273,0.0,0.0,77,0.00,,---,0.35,VWS V14.01,2013-03-31 22:40:00,
2013-03-31 17:43:00,60.8,53.5,28.26,West,274,2.2,2.2,77,0.00,,---,0.35,VWS V14.01,2013-03-31 22:43:00,
2013-03-31 17:45:00,60.6,53.7,28.26,SW,214,4.0,4.0,78,0.00,,---,0.35,VWS V14.01,2013-03-31 22:45:00,
2013-03-31 17:48:00,60.6,53.4,28.26,SW,232,0.0,0.0,77,0.00,,---,0.35,VWS V14.01,2013-03-31 22:48:00,
2013-03-31 17:50:00,60.4,53.2,28.26,SW,224,0.0,0.0,77,0.00,,---,0.35,VWS V14.01,2013-03-31 22:50:00,
2013-03-31 17:51:00,60.4,53.2,28.26,SW,224,0.0,0.0,77,0.00,,---,0.35,VWS V14.01,2013-03-31 22:51:00,
2013-03-31 17:53:00,60.4,53.2,28.26,West,259,0.0,2.7,77,0.00,,---,0.35,VWS V14.01,2013-03-31 22:53:00,
2013-03-31 17:55:00,60.3,53.0,28.29,West,259,0.0,0.0,77,0.00,,---,0.35,VWS V14.01,2013-03-31 22:55:00,
2013-03-31 17:56:00,60.3,53.0,28.29,West,259,0.0,0.0,77,0.00,,---,0.35,VWS V14.01,2013-03-31 22:56:00,
2013-03-31 17:58:00,60.1,52.5,28.29,WSW,238,0.0,0.0,76,0.00,,---,0.35,VWS V14.01,2013-03-31 22:58:00,
2013-03-31 18:00:00,60.1,52.5,28.29,WSW,238,2.2,2.2,76,0.00,,---,0.35,VWS V14.01,2013-03-31 23:00:00,
2013-03-31 18:01:00,59.9,52.3,28.29,WSW,244,3.1,3.1,76,0.00,,---,0.35,VWS V14.01,2013-03-31 23:01:00,
2013-03-31 18:02:00,59.9,52.3,28.29,WSW,244,3.1,3.1,76,0.00,,---,0.35,VWS V14.01,2013-03-31 23:02:00,
2013-03-31 18:04:00,59.9,52.3,28.29,WSW,249,0.0,0.0,76,0.00,,---,0.35,VWS V14.01,2013-03-31 23:04:00,
2013-03-31 18:05:00,59.7,52.2,28.29,WSW,248,0.0,0.0,76,0.00,,---,0.35,VWS V14.01,2013-03-31 23:05:00,
2013-03-31 18:07:00,59.7,51.8,28.29,WSW,248,0.0,2.2,75,0.00,,---,0.35,VWS V14.01,2013-03-31 23:07:00,
2013-03-31 18:09:00,59.7,51.8,28.29,WSW,248,2.2,2.2,75,0.00,,---,0.35,VWS V14.01,2013-03-31 23:09:00,
2013-03-31 18:10:00,59.5,51.6,28.29,WSW,248,0.0,0.0,75,0.00,,---,0.35,VWS V14.01,2013-03-31 23:10:00,
2013-03-31 18:12:00,59.5,51.6,28.29,WSW,248,0.0,0.0,75,0.00,,---,0.35,VWS V14.01,2013-03-31 23:12:00,
2013-03-31 18:14:00,59.4,51.5,28.29,WSW,250,0.0,0.0,75,0.00,,---,0.35,VWS V14.01,2013-03-31 23:14:00,
2013-03-31 18:15:00,59.4,51.5,28.29,NNW,338,3.1,3.1,75,0.00,,---,0.35,VWS V14.01,2013-03-31 23:15:00,
2013-03-31 18:17:00,59.4,51.5,28.29,NW,326,0.0,4.0,75,0.00,,---,0.35,VWS V14.01,2013-03-31 23:17:00,
2013-03-31 18:19:00,59.4,51.5,28.29,NW,326,2.7,2.7,75,0.00,,---,0.35,VWS V14.01,2013-03-31 23:19:00,
2013-03-31 18:21:00,59.2,51.3,28.29,NW,326,2.7,2.7,75,0.00,,---,0.35,VWS V14.01,2013-03-31 23:21:00,
2013-03-31 18:22:00,59.2,51.3,28.29,NW,326,2.7,2.7,75,0.00,,---,0.35,VWS V14.01,2013-03-31 23:22:00,
2013-03-31 18:24:00,59.2,50.9,28.29,NW,326,0.0,0.0,74,0.00,,---,0.35,VWS V14.01,2013-03-31 23:24:00,
2013-03-31 18:26:00,59.0,50.7,28.29,NW,326,0.0,0.0,74,0.00,,---,0.35,VWS V14.01,2013-03-31 23:26:00,
2013-03-31 18:27:00,59.0,50.7,28.29,NW,326,0.0,2.2,74,0.00,,---,0.35,VWS V14.01,2013-03-31 23:27:00,
2013-03-31 18:29:00,58.8,50.9,28.29,NW,326,2.2,2.2,75,0.00,,---,0.35,VWS V14.01,2013-03-31 23:29:00,
2013-03-31 18:31:00,58.8,50.9,28.29,NW,326,0.0,0.0,75,0.00,,---,0.35,VWS V14.01,2013-03-31 23:31:00,
2013-03-31 18:32:00,58.8,50.9,28.29,NW,326,0.0,0.0,75,0.00,,---,0.35,VWS V14.01,2013-03-31 23:32:00,
2013-03-31 18:33:00,58.6,50.8,28.29,NW,326,0.0,0.0,75,0.00,,---,0.35,VWS V14.01,2013-03-31 23:33:00,
2013-03-31 18:34:00,58.6,50.8,28.29,NW,326,0.0,0.0,75,0.00,,---,0.35,VWS V14.01,2013-03-31 23:34:00,
2013-03-31 18:36:00,58.6,51.1,28.29,NW,326,0.0,0.0,76,0.00,,---,0.35,VWS V14.01,2013-03-31 23:36:00,
2013-03-31 18:37:00,58.6,51.1,28.29,NW,326,0.0,0.0,76,0.00,,---,0.35,VWS V14.01,2013-03-31 23:37:00,
2013-03-31 18:38:00,58.5,50.9,28.29,NW,326,0.0,0.0,76,0.00,,---,0.35,VWS V14.01,2013-03-31 23:38:00,
2013-03-31 18:40:00,58.5,50.9,28.29,NW,326,0.0,0.0,76,0.00,,---,0.35,VWS V14.01,2013-03-31 23:40:00,
2013-03-31 18:42:00,58.5,50.9,28.29,NW,326,0.0,0.0,76,0.00,,---,0.35,VWS V14.01,2013-03-31 23:42:00,
2013-03-31 18:43:00,58.5,50.9,28.29,NW,326,0.0,0.0,76,0.00,,---,0.35,VWS V14.01,2013-03-31 23:43:00,
2013-03-31 18:44:00,58.5,50.9,28.29,NW,326,0.0,0.0,76,0.04,,---,0.39,VWS V14.01,2013-03-31 23:44:00,
2013-03-31 18:45:00,58.5,50.9,28.26,NW,326,0.0,0.0,76,0.04,,---,0.39,VWS V14.01,2013-03-31 23:45:00,
2013-03-31 18:47:00,58.5,51.3,28.26,NW,326,0.0,0.0,77,0.04,,---,0.39,VWS V14.01,2013-03-31 23:47:00,
2013-03-31 18:48:00,58.3,51.1,28.26,NW,326,0.0,0.0,77,0.04,,---,0.39,VWS V14.01,2013-03-31 23:48:00,
2013-03-31 18:49:00,58.3,51.1,28.26,NW,326,0.0,0.0,77,0.04,,---,0.39,VWS V14.01,2013-03-31 23:49:00,
2013-03-31 18:50:00,58.3,51.1,28.26,NW,326,0.0,0.0,77,0.04,,---,0.39,VWS V14.01,2013-03-31 23:50:00,
2013-03-31 18:52:00,58.3,51.1,28.26,NW,326,0.0,0.0,77,0.04,,---,0.39,VWS V14.01,2013-03-31 23:52:00,
2013-03-31 18:54:00,58.3,51.1,28.26,NW,326,0.0,0.0,77,0.04,,---,0.39,VWS V14.01,2013-03-31 23:54:00,
2013-03-31 18:55:00,58.3,51.1,28.26,NW,326,0.0,0.0,77,0.04,,---,0.39,VWS V14.01,2013-03-31 23:55:00,
2013-03-31 18:57:00,58.1,50.9,28.26,NW,326,0.0,0.0,77,0.04,,---,0.39,VWS V14.01,2013-03-31 23:57:00,
2013-03-31 18:59:00,58.1,50.9,28.29,NW,326,0.0,0.0,77,0.04,,---,0.39,VWS V14.01,2013-03-31 23:59:00,
2013-03-31 19:00:00,58.1,50.9,28.29,NW,326,0.0,0.0,77,0.04,,---,0.39,VWS V14.01,2013-04-01 00:00:00,
2013-03-31 19:02:00,58.1,51.3,28.29,NW,326,0.0,0.0,78,0.04,,---,0.39,VWS V14.01,2013-04-01 00:02:00,
2013-03-31 19:04:00,58.1,51.3,28.29,NW,326,0.0,0.0,78,0.04,,---,0.39,VWS V14.01,2013-04-01 00:04:00,
2013-03-31 19:05:00,58.1,51.3,28.29,NW,326,0.0,0.0,78,0.04,,---,0.39,VWS V14.01,2013-04-01 00:05:00,
2013-03-31 19:08:00,58.1,51.3,28.29,NW,326,0.0,0.0,78,0.04,,---,0.39,VWS V14.01,2013-04-01 00:08:00,
2013-03-31 19:09:00,57.9,51.1,28.29,NW,326,0.0,0.0,78,0.04,,---,0.39,VWS V14.01,2013-04-01 00:09:00,
2013-03-31 19:10:00,57.9,51.1,28.29,NW,326,0.0,0.0,78,0.04,,---,0.39,VWS V14.01,2013-04-01 00:10:00,
2013-03-31 19:13:00,57.9,51.1,28.26,NW,326,0.0,0.0,78,0.04,,---,0.39,VWS V14.01,2013-04-01 00:13:00,
2013-03-31 19:14:00,57.9,51.1,28.26,NW,326,0.0,0.0,78,0.04,,---,0.39,VWS V14.01,2013-04-01 00:14:00,
2013-03-31 19:15:00,57.9,51.1,28.26,NW,326,0.0,0.0,78,0.04,,---,0.39,VWS V14.01,2013-04-01 00:15:00,
2013-03-31 19:18:00,57.9,51.5,28.26,NW,326,0.0,0.0,79,0.04,,---,0.39,VWS V14.01,2013-04-01 00:18:00,
2013-03-31 19:19:00,57.9,51.5,28.26,NW,326,0.0,0.0,79,0.04,,---,0.39,VWS V14.01,2013-04-01 00:19:00,
2013-03-31 19:20:00,57.9,51.5,28.26,NW,326,0.0,0.0,79,0.04,,---,0.39,VWS V14.01,2013-04-01 00:20:00,
2013-03-31 19:23:00,57.9,51.5,28.26,NW,326,0.0,0.0,79,0.04,,---,0.39,VWS V14.01,2013-04-01 00:23:00,
2013-03-31 19:24:00,57.9,51.5,28.26,NW,326,0.0,0.0,79,0.04,,---,0.39,VWS V14.01,2013-04-01 00:24:00,
2013-03-31 19:25:00,57.9,51.5,28.26,NW,326,0.0,0.0,79,0.04,,---,0.39,VWS V14.01,2013-04-01 00:25:00,
2013-03-31 19:28:00,57.7,51.3,28.26,NW,326,0.0,0.0,79,0.04,,---,0.39,VWS V14.01,2013-04-01 00:28:00,
2013-03-31 19:29:00,57.7,51.3,28.26,NW,326,0.0,0.0,79,0.04,,---,0.39,VWS V14.01,2013-04-01 00:29:00,
2013-03-31 19:30:00,57.7,51.6,28.26,NW,326,0.0,0.0,80,0.04,,---,0.39,VWS V14.01,2013-04-01 00:30:00,
2013-03-31 19:33:00,57.7,51.6,28.26,NW,326,0.0,0.0,80,0.04,,---,0.39,VWS V14.01,2013-04-01 00:33:00,
2013-03-31 19:34:00,57.7,51.6,28.26,NW,326,0.0,0.0,80,0.04,,---,0.39,VWS V14.01,2013-04-01 00:34:00,
2013-03-31 19:35:00,57.7,51.6,28.26,NW,326,0.0,0.0,80,0.04,,---,0.39,VWS V14.01,2013-04-01 00:35:00,
2013-03-31 19:39:00,57.7,51.6,28.26,NW,326,0.0,0.0,80,0.04,,---,0.39,VWS V14.01,2013-04-01 00:39:00,
2013-03-31 19:40:00,57.7,51.6,28.26,NW,326,0.0,0.0,80,0.04,,---,0.39,VWS V14.01,2013-04-01 00:40:00,
2013-03-31 19:44:00,57.6,51.5,28.26,NW,326,0.0,0.0,80,0.00,,---,0.39,VWS V14.01,2013-04-01 00:44:00,
2013-03-31 19:45:00,57.6,51.5,28.26,NW,326,0.0,0.0,80,0.00,,---,0.39,VWS V14.01,2013-04-01 00:45:00,
2013-03-31 19:49:00,57.6,51.8,28.26,West,261,0.0,0.0,81,0.00,,---,0.39,VWS V14.01,2013-04-01 00:49:00,
2013-03-31 19:50:00,57.6,51.8,28.26,West,261,0.0,0.0,81,0.00,,---,0.39,VWS V14.01,2013-04-01 00:50:00,
2013-03-31 19:51:00,57.6,51.8,28.26,West,261,0.0,0.0,81,0.00,,---,0.39,VWS V14.01,2013-04-01 00:51:00,
2013-03-31 19:54:00,57.6,51.8,28.26,West,261,0.0,0.0,81,0.00,,---,0.39,VWS V14.01,2013-04-01 00:54:00,
2013-03-31 19:55:00,57.6,51.8,28.26,West,261,0.0,0.0,81,0.00,,---,0.39,VWS V14.01,2013-04-01 00:55:00,
2013-03-31 19:56:00,57.6,51.8,28.26,West,261,0.0,0.0,81,0.00,,---,0.39,VWS V14.01,2013-04-01 00:56:00,
2013-03-31 19:59:00,57.6,51.8,28.26,West,261,0.0,0.0,81,0.00,,---,0.39,VWS V14.01,2013-04-01 00:59:00,
2013-03-31 20:00:00,57.6,52.1,28.26,West,261,0.0,0.0,82,0.00,,---,0.39,VWS V14.01,2013-04-01 01:00:00,
2013-03-31 20:01:00,57.6,52.1,28.26,West,261,0.0,0.0,82,0.00,,---,0.39,VWS V14.01,2013-04-01 01:01:00,
2013-03-31 20:02:00,57.6,52.1,28.26,West,261,0.0,0.0,82,0.00,,---,0.39,VWS V14.01,2013-04-01 01:02:00,
2013-03-31 20:04:00,57.6,51.8,28.26,West,261,0.0,0.0,81,0.00,,---,0.39,VWS V14.01,2013-04-01 01:04:00,
2013-03-31 20:05:00,57.6,51.8,28.26,West,261,0.0,0.0,81,0.00,,---,0.39,VWS V14.01,2013-04-01 01:05:00,
2013-03-31 20:07:00,57.6,51.8,28.26,West,261,0.0,0.0,81,0.00,,---,0.39,VWS V14.01,2013-04-01 01:07:00,
2013-03-31 20:09:00,57.6,51.8,28.26,West,261,0.0,0.0,81,0.00,,---,0.39,VWS V14.01,2013-04-01 01:09:00,
2013-03-31 20:10:00,57.4,51.6,28.26,West,261,0.0,0.0,81,0.00,,---,0.39,VWS V14.01,2013-04-01 01:10:00,
2013-03-31 20:12:00,57.4,51.6,28.26,West,261,0.0,0.0,81,0.00,,---,0.39,VWS V14.01,2013-04-01 01:12:00,
2013-03-31 20:15:00,57.4,51.9,28.26,North,357,0.0,0.0,82,0.00,,---,0.39,VWS V14.01,2013-04-01 01:15:00,
2013-03-31 20:17:00,57.6,52.1,28.26,North,357,0.0,0.0,82,0.00,,---,0.39,VWS V14.01,2013-04-01 01:17:00,
2013-03-31 20:20:00,57.6,52.1,28.26,WSW,240,0.0,0.0,82,0.00,,---,0.39,VWS V14.01,2013-04-01 01:20:00,
2013-03-31 20:22:00,57.6,52.4,28.26,WSW,240,0.0,0.0,83,0.00,,---,0.39,VWS V14.01,2013-04-01 01:22:00,
2013-03-31 20:23:00,57.6,52.4,28.26,WSW,248,0.0,0.0,83,0.00,,---,0.39,VWS V14.01,2013-04-01 01:23:00,
2013-03-31 20:25:00,57.6,52.4,28.26,West,260,0.0,0.0,83,0.00,,---,0.39,VWS V14.01,2013-04-01 01:25:00,
2013-03-31 20:26:00,57.6,52.4,28.26,West,260,0.0,0.0,83,0.00,,---,0.39,VWS V14.01,2013-04-01 01:26:00,
2013-03-31 20:27:00,57.7,52.6,28.26,West,260,0.0,0.0,83,0.00,,---,0.39,VWS V14.01,2013-04-01 01:27:00,
2013-03-31 20:28:00,57.7,52.6,28.26,West,260,0.0,0.0,83,0.00,,---,0.39,VWS V14.01,2013-04-01 01:28:00,
2013-03-31 20:30:00,57.7,52.6,28.26,West,260,0.0,0.0,83,0.00,,---,0.39,VWS V14.01,2013-04-01 01:30:00,
2013-03-31 20:31:00,57.7,52.6,28.26,West,260,0.0,0.0,83,0.00,,---,0.39,VWS V14.01,2013-04-01 01:31:00,
2013-03-31 20:32:00,57.7,52.6,28.26,West,260,0.0,0.0,83,0.00,,---,0.39,VWS V14.01,2013-04-01 01:32:00,
2013-03-31 20:33:00,57.7,52.6,28.26,West,260,0.0,0.0,83,0.00,,---,0.39,VWS V14.01,2013-04-01 01:33:00,
2013-03-31 20:35:00,57.6,52.4,28.26,West,260,0.0,0.0,83,0.00,,---,0.39,VWS V14.01,2013-04-01 01:35:00,
2013-03-31 20:36:00,57.6,52.4,28.26,West,260,0.0,0.0,83,0.00,,---,0.39,VWS V14.01,2013-04-01 01:36:00,
2013-03-31 20:37:00,57.6,52.1,28.26,West,260,0.0,0.0,82,0.00,,---,0.39,VWS V14.01,2013-04-01 01:37:00,
2013-03-31 20:39:00,57.6,52.1,28.26,West,260,0.0,0.0,82,0.00,,---,0.39,VWS V14.01,2013-04-01 01:39:00,
2013-03-31 20:40:00,57.6,52.1,28.26,West,260,0.0,0.0,82,0.00,,---,0.39,VWS V14.01,2013-04-01 01:40:00,
2013-03-31 20:41:00,57.6,52.1,28.26,West,260,0.0,0.0,82,0.00,,---,0.39,VWS V14.01,2013-04-01 01:41:00,
2013-03-31 20:42:00,57.4,51.9,28.26,West,260,0.0,0.0,82,0.00,,---,0.39,VWS V14.01,2013-04-01 01:42:00,
2013-03-31 20:44:00,57.4,51.9,28.26,West,260,0.0,0.0,82,0.00,,---,0.39,VWS V14.01,2013-04-01 01:44:00,
2013-03-31 20:45:00,57.2,51.8,28.26,West,260,0.0,0.0,82,0.00,,---,0.39,VWS V14.01,2013-04-01 01:45:00,
2013-03-31 20:47:00,57.2,51.8,28.26,West,260,0.0,0.0,82,0.00,,---,0.39,VWS V14.01,2013-04-01 01:47:00,
2013-03-31 20:48:00,57.2,51.8,28.26,West,260,0.0,0.0,82,0.00,,---,0.39,VWS V14.01,2013-04-01 01:48:00,
2013-03-31 20:49:00,57.2,51.8,28.26,West,260,0.0,0.0,82,0.00,,---,0.39,VWS V14.01,2013-04-01 01:49:00,
2013-03-31 20:51:00,57.2,51.8,28.26,South,170,0.0,0.0,82,0.00,,---,0.39,VWS V14.01,2013-04-01 01:51:00,
2013-03-31 20:52:00,57.2,51.8,28.26,South,170,0.0,0.0,82,0.00,,---,0.39,VWS V14.01,2013-04-01 01:52:00,
2013-03-31 20:53:00,57.2,51.8,28.29,South,170,0.0,0.0,82,0.00,,---,0.39,VWS V14.01,2013-04-01 01:53:00,
2013-03-31 20:54:00,57.2,51.8,28.29,South,170,0.0,0.0,82,0.00,,---,0.39,VWS V14.01,2013-04-01 01:54:00,
2013-03-31 20:57:00,57.2,51.8,28.29,South,170,0.0,0.0,82,0.00,,---,0.39,VWS V14.01,2013-04-01 01:57:00,
2013-03-31 20:58:00,57.2,52.1,28.29,South,170,0.0,0.0,83,0.00,,---,0.39,VWS V14.01,2013-04-01 01:58:00,
2013-03-31 20:59:00,57.2,52.1,28.29,South,170,0.0,0.0,83,0.00,,---,0.39,VWS V14.01,2013-04-01 01:59:00,
2013-03-31 21:02:00,57.2,52.1,28.29,South,170,0.0,0.0,83,0.00,,---,0.39,VWS V14.01,2013-04-01 02:02:00,
2013-03-31 21:04:00,57.2,52.1,28.29,South,170,0.0,0.0,83,0.00,,---,0.39,VWS V14.01,2013-04-01 02:04:00,
2013-03-31 21:07:00,57.0,51.9,28.29,South,170,0.0,0.0,83,0.00,,---,0.39,VWS V14.01,2013-04-01 02:07:00,
2013-03-31 21:09:00,57.0,51.9,28.29,South,170,0.0,0.0,83,0.00,,---,0.39,VWS V14.01,2013-04-01 02:09:00,
2013-03-31 21:12:00,57.0,51.9,28.29,South,170,0.0,0.0,83,0.00,,---,0.39,VWS V14.01,2013-04-01 02:12:00,
2013-03-31 21:13:00,57.0,51.9,28.29,South,170,0.0,0.0,83,0.00,,---,0.39,VWS V14.01,2013-04-01 02:13:00,
2013-03-31 21:14:00,57.0,51.9,28.29,South,170,0.0,0.0,83,0.00,,---,0.39,VWS V14.01,2013-04-01 02:14:00,
2013-03-31 21:17:00,57.0,51.9,28.29,South,170,0.0,0.0,83,0.00,,---,0.39,VWS V14.01,2013-04-01 02:17:00,
2013-03-31 21:18:00,57.0,51.9,28.29,South,170,0.0,0.0,83,0.00,,---,0.39,VWS V14.01,2013-04-01 02:18:00,
2013-03-31 21:19:00,57.0,52.2,28.29,South,170,0.0,0.0,84,0.00,,---,0.39,VWS V14.01,2013-04-01 02:19:00,
2013-03-31 21:23:00,57.0,52.2,28.29,South,170,0.0,0.0,84,0.00,,---,0.39,VWS V14.01,2013-04-01 02:23:00,
2013-03-31 21:24:00,57.0,52.2,28.29,South,170,0.0,0.0,84,0.00,,---,0.39,VWS V14.01,2013-04-01 02:24:00,
2013-03-31 21:25:00,57.0,52.2,28.29,South,170,0.0,0.0,84,0.00,,---,0.39,VWS V14.01,2013-04-01 02:25:00,
2013-03-31 21:28:00,57.0,52.2,28.29,South,170,0.0,0.0,84,0.00,,---,0.39,VWS V14.01,2013-04-01 02:28:00,
2013-03-31 21:29:00,57.0,52.2,28.29,South,170,0.0,0.0,84,0.00,,---,0.39,VWS V14.01,2013-04-01 02:29:00,
2013-03-31 21:30:00,57.0,52.2,28.29,South,170,0.0,0.0,84,0.00,,---,0.39,VWS V14.01,2013-04-01 02:30:00,
2013-03-31 21:33:00,57.0,52.2,28.29,South,170,0.0,0.0,84,0.00,,---,0.39,VWS V14.01,2013-04-01 02:33:00,
2013-03-31 21:34:00,57.0,52.2,28.29,South,170,0.0,0.0,84,0.00,,---,0.39,VWS V14.01,2013-04-01 02:34:00,
2013-03-31 21:35:00,57.0,52.2,28.29,South,170,0.0,0.0,84,0.00,,---,0.39,VWS V14.01,2013-04-01 02:35:00,
2013-03-31 21:38:00,56.8,52.1,28.29,South,170,0.0,0.0,84,0.00,,---,0.39,VWS V14.01,2013-04-01 02:38:00,
2013-03-31 21:39:00,56.8,52.1,28.29,South,170,0.0,0.0,84,0.00,,---,0.39,VWS V14.01,2013-04-01 02:39:00,
2013-03-31 21:40:00,56.8,52.1,28.29,South,170,0.0,0.0,84,0.00,,---,0.39,VWS V14.01,2013-04-01 02:40:00,
2013-03-31 21:43:00,57.0,52.2,28.29,NW,308,0.0,0.0,84,0.00,,---,0.39,VWS V14.01,2013-04-01 02:43:00,
2013-03-31 21:44:00,57.0,52.2,28.29,NW,308,0.0,0.0,84,0.00,,---,0.39,VWS V14.01,2013-04-01 02:44:00,
2013-03-31 21:45:00,57.0,52.2,28.29,NW,308,0.0,0.0,84,0.00,,---,0.39,VWS V14.01,2013-04-01 02:45:00,
2013-03-31 21:48:00,57.0,52.2,28.29,NW,308,0.0,0.0,84,0.00,,---,0.39,VWS V14.01,2013-04-01 02:48:00,
2013-03-31 21:49:00,57.0,52.2,28.29,NW,308,0.0,0.0,84,0.00,,---,0.39,VWS V14.01,2013-04-01 02:49:00,
2013-03-31 21:50:00,57.0,52.2,28.29,NW,308,2.7,2.7,84,0.00,,---,0.39,VWS V14.01,2013-04-01 02:50:00,
2013-03-31 21:53:00,57.2,52.4,28.29,NW,308,2.7,2.7,84,0.00,,---,0.39,VWS V14.01,2013-04-01 02:53:00,
2013-03-31 21:54:00,57.2,52.7,28.29,NW,308,2.7,2.7,85,0.00,,---,0.39,VWS V14.01,2013-04-01 02:54:00,
2013-03-31 21:55:00,57.2,52.7,28.29,NW,308,2.7,2.7,85,0.00,,---,0.39,VWS V14.01,2013-04-01 02:55:00,
2013-03-31 21:58:00,57.2,52.7,28.29,West,281,0.0,0.0,85,0.00,,---,0.39,VWS V14.01,2013-04-01 02:58:00,
2013-03-31 21:59:00,57.4,52.9,28.29,West,281,0.0,0.0,85,0.00,,---,0.39,VWS V14.01,2013-04-01 02:59:00,
2013-03-31 22:00:00,57.4,52.9,28.29,West,281,0.0,0.0,85,0.00,,---,0.39,VWS V14.01,2013-04-01 03:00:00,
2013-03-31 22:01:00,57.4,52.9,28.29,West,281,0.0,0.0,85,0.00,,---,0.39,VWS V14.01,2013-04-01 03:01:00,
2013-03-31 22:04:00,57.4,52.9,28.29,West,281,0.0,0.0,85,0.00,,---,0.39,VWS V14.01,2013-04-01 03:04:00,
2013-03-31 22:05:00,57.2,52.4,28.29,West,281,0.0,0.0,84,0.00,,---,0.39,VWS V14.01,2013-04-01 03:05:00,
2013-03-31 22:06:00,57.2,52.4,28.29,West,281,0.0,0.0,84,0.00,,---,0.39,VWS V14.01,2013-04-01 03:06:00,
2013-03-31 22:09:00,57.2,52.4,28.29,West,281,0.0,0.0,84,0.00,,---,0.39,VWS V14.01,2013-04-01 03:09:00,
2013-03-31 22:10:00,57.2,52.4,28.29,West,281,0.0,0.0,84,0.00,,---,0.39,VWS V14.01,2013-04-01 03:10:00,
2013-03-31 22:11:00,57.2,52.4,28.29,West,281,0.0,0.0,84,0.00,,---,0.39,VWS V14.01,2013-04-01 03:11:00,
2013-03-31 22:14:00,57.2,52.4,28.29,West,281,0.0,0.0,84,0.00,,---,0.39,VWS V14.01,2013-04-01 03:14:00,
2013-03-31 22:15:00,57.2,52.4,28.29,West,281,0.0,0.0,84,0.00,,---,0.39,VWS V14.01,2013-04-01 03:15:00,
2013-03-31 22:17:00,57.2,52.4,28.29,West,281,0.0,0.0,84,0.00,,---,0.39,VWS V14.01,2013-04-01 03:17:00,
2013-03-31 22:19:00,57.2,52.4,28.29,West,281,0.0,0.0,84,0.00,,---,0.39,VWS V14.01,2013-04-01 03:19:00,
2013-03-31 22:20:00,57.2,52.4,28.29,West,281,0.0,0.0,84,0.00,,---,0.39,VWS V14.01,2013-04-01 03:20:00,
2013-03-31 22:22:00,57.0,52.2,28.29,West,281,0.0,0.0,84,0.00,,---,0.39,VWS V14.01,2013-04-01 03:22:00,
2013-03-31 22:24:00,57.0,52.2,28.29,West,280,0.0,0.0,84,0.00,,---,0.39,VWS V14.01,2013-04-01 03:24:00,
2013-03-31 22:25:00,57.0,52.2,28.29,West,280,0.0,0.0,84,0.00,,---,0.39,VWS V14.01,2013-04-01 03:25:00,
2013-03-31 22:26:00,57.0,52.2,28.29,West,281,0.0,0.0,84,0.00,,---,0.39,VWS V14.01,2013-04-01 03:26:00,
2013-03-31 22:27:00,56.8,52.1,28.29,West,280,0.0,0.0,84,0.00,,---,0.39,VWS V14.01,2013-04-01 03:27:00,
2013-03-31 22:29:00,56.8,52.1,28.29,West,281,0.0,0.0,84,0.00,,---,0.39,VWS V14.01,2013-04-01 03:29:00,
2013-03-31 22:30:00,56.8,52.1,28.29,West,281,0.0,0.0,84,0.00,,---,0.39,VWS V14.01,2013-04-01 03:30:00,
2013-03-31 22:31:00,56.8,52.1,28.29,West,281,0.0,0.0,84,0.00,,---,0.39,VWS V14.01,2013-04-01 03:31:00,
2013-03-31 22:33:00,56.7,51.9,28.29,West,281,0.0,0.0,84,0.00,,---,0.39,VWS V14.01,2013-04-01 03:33:00,
2013-03-31 22:34:00,56.7,51.9,28.29,West,281,0.0,0.0,84,0.00,,---,0.39,VWS V14.01,2013-04-01 03:34:00,
2013-03-31 22:35:00,56.7,51.9,28.29,West,281,0.0,0.0,84,0.00,,---,0.39,VWS V14.01,2013-04-01 03:35:00,
2013-03-31 22:36:00,56.7,51.9,28.29,West,281,0.0,0.0,84,0.00,,---,0.39,VWS V14.01,2013-04-01 03:36:00,
2013-03-31 22:38:00,56.7,51.9,28.29,West,281,0.0,0.0,84,0.00,,---,0.39,VWS V14.01,2013-04-01 03:38:00,
2013-03-31 22:39:00,56.7,51.9,28.29,West,281,0.0,0.0,84,0.00,,---,0.39,VWS V14.01,2013-04-01 03:39:00,
2013-03-31 22:40:00,56.7,51.9,28.29,West,281,0.0,0.0,84,0.00,,---,0.39,VWS V14.01,2013-04-01 03:40:00,
2013-03-31 22:42:00,56.7,51.9,28.29,West,281,0.0,0.0,84,0.00,,---,0.39,VWS V14.01,2013-04-01 03:42:00,
2013-03-31 22:43:00,56.7,51.9,28.29,West,281,0.0,0.0,84,0.00,,---,0.39,VWS V14.01,2013-04-01 03:43:00,
2013-03-31 22:45:00,56.5,51.7,28.29,West,281,0.0,0.0,84,0.00,,---,0.39,VWS V14.01,2013-04-01 03:45:00,
2013-03-31 22:47:00,56.5,51.7,28.29,West,281,0.0,0.0,84,0.00,,---,0.39,VWS V14.01,2013-04-01 03:47:00,
2013-03-31 22:48:00,56.7,52.2,28.29,West,281,0.0,0.0,85,0.00,,---,0.39,VWS V14.01,2013-04-01 03:48:00,
2013-03-31 22:50:00,56.5,52.0,28.29,West,281,0.0,0.0,85,0.00,,---,0.39,VWS V14.01,2013-04-01 03:50:00,
2013-03-31 22:52:00,56.5,52.0,28.29,West,281,0.0,0.0,85,0.00,,---,0.39,VWS V14.01,2013-04-01 03:52:00,
2013-03-31 22:53:00,56.5,52.0,28.29,West,281,0.0,0.0,85,0.00,,---,0.39,VWS V14.01,2013-04-01 03:53:00,
2013-03-31 22:55:00,56.7,52.2,28.29,West,281,0.0,0.0,85,0.00,,---,0.39,VWS V14.01,2013-04-01 03:55:00,
2013-03-31 22:57:00,56.5,52.0,28.29,West,281,0.0,0.0,85,0.00,,---,0.39,VWS V14.01,2013-04-01 03:57:00,
2013-03-31 22:58:00,56.5,52.0,28.29,West,281,0.0,0.0,85,0.00,,---,0.39,VWS V14.01,2013-04-01 03:58:00,
2013-03-31 23:00:00,56.5,52.0,28.29,West,281,0.0,0.0,85,0.00,,---,0.39,VWS V14.01,2013-04-01 04:00:00,
2013-03-31 23:05:00,56.7,52.2,28.29,West,281,0.0,0.0,85,0.00,,---,0.00,VWS V14.01,2013-04-01 04:05:00,
2013-03-31 23:10:00,56.7,52.2,28.29,West,281,0.0,0.0,85,0.00,,---,0.00,VWS V14.01,2013-04-01 04:10:00,
2013-03-31 23:12:00,56.7,52.2,28.29,West,281,0.0,0.0,85,0.00,,---,0.00,VWS V14.01,2013-04-01 04:12:00,
2013-03-31 23:15:00,56.5,52.0,28.29,West,281,0.0,0.0,85,0.00,,---,0.00,VWS V14.01,2013-04-01 04:15:00,
2013-03-31 23:17:00,56.5,52.0,28.29,West,281,0.0,0.0,85,0.00,,---,0.00,VWS V14.01,2013-04-01 04:17:00,
2013-03-31 23:20:00,56.5,52.0,28.29,West,281,0.0,0.0,85,0.00,,---,0.00,VWS V14.01,2013-04-01 04:20:00,
2013-03-31 23:22:00,56.5,52.0,28.29,West,281,0.0,0.0,85,0.04,,---,0.04,VWS V14.01,2013-04-01 04:22:00,
2013-03-31 23:25:00,56.3,51.9,28.29,West,280,0.0,0.0,85,0.04,,---,0.04,VWS V14.01,2013-04-01 04:25:00,
2013-03-31 23:27:00,56.3,51.9,28.29,West,281,0.0,0.0,85,0.04,,---,0.04,VWS V14.01,2013-04-01 04:27:00,
2013-03-31 23:30:00,56.3,51.9,28.29,West,281,0.0,0.0,85,0.04,,---,0.04,VWS V14.01,2013-04-01 04:30:00,
2013-03-31 23:33:00,56.3,51.9,28.29,West,281,0.0,0.0,85,0.04,,---,0.04,VWS V14.01,2013-04-01 04:33:00,
2013-03-31 23:35:00,56.3,51.9,28.29,West,280,0.0,0.0,85,0.04,,---,0.04,VWS V14.01,2013-04-01 04:35:00,
2013-03-31 23:36:00,56.3,51.9,28.29,West,281,0.0,0.0,85,0.04,,---,0.04,VWS V14.01,2013-04-01 04:36:00,
2013-03-31 23:38:00,56.3,51.9,28.29,West,281,0.0,0.0,85,0.04,,---,0.04,VWS V14.01,2013-04-01 04:38:00,
2013-03-31 23:40:00,56.3,51.9,28.29,West,281,0.0,0.0,85,0.04,,---,0.04,VWS V14.01,2013-04-01 04:40:00,
2013-03-31 23:41:00,56.3,51.9,28.29,West,281,0.0,0.0,85,0.04,,---,0.04,VWS V14.01,2013-04-01 04:41:00,
2013-03-31 23:43:00,56.3,51.9,28.29,West,280,0.0,0.0,85,0.04,,---,0.04,VWS V14.01,2013-04-01 04:43:00,
2013-03-31 23:45:00,56.3,51.9,28.29,West,280,0.0,0.0,85,0.04,,---,0.04,VWS V14.01,2013-04-01 04:45:00,
2013-03-31 23:46:00,56.3,51.9,28.29,West,280,0.0,0.0,85,0.04,,---,0.04,VWS V14.01,2013-04-01 04:46:00,
2013-03-31 23:47:00,56.3,51.9,28.29,West,281,0.0,0.0,85,0.04,,---,0.04,VWS V14.01,2013-04-01 04:47:00,
2013-03-31 23:49:00,56.3,51.9,28.29,West,281,0.0,0.0,85,0.04,,---,0.04,VWS V14.01,2013-04-01 04:49:00,
2013-03-31 23:51:00,56.3,51.9,28.29,West,281,0.0,0.0,85,0.04,,---,0.04,VWS V14.01,2013-04-01 04:51:00,
2013-03-31 23:52:00,56.3,51.9,28.29,West,281,0.0,0.0,85,0.04,,---,0.04,VWS V14.01,2013-04-01 04:52:00,
2013-03-31 23:54:00,56.1,51.7,28.29,West,281,0.0,0.0,85,0.04,,---,0.04,VWS V14.01,2013-04-01 04:54:00,
2013-03-31 23:56:00,56.1,51.7,28.29,West,281,0.0,0.0,85,0.04,,---,0.04,VWS V14.01,2013-04-01 04:56:00,
2013-03-31 23:57:00,56.1,51.7,28.29,West,281,0.0,0.0,85,0.04,,---,0.04,VWS V14.01,2013-04-01 04:57:00,
2013-03-31 23:59:00,56.1,51.7,28.29,West,281,0.0,0.0,85,0.04,,---,0.04,VWS V14.01,2013-04-01 04:59:00,